<?xml version="1.0" encoding="UTF-8" standalone="no" ?>
<gpx xmlns="http://www.topografix.com/GPX/1/1" xmlns:xsi="http://www.w3.org/2001/XMLSchema-instance" xsi:schemaLocation="http://www.topografix.com/GPX/1/1 http://www.topografix.com/GPX/1/1/gpx.xsd" version="1.1" creator="VisuGPX - https://www.visugpx.com">
  <metadata>
    <name>Promenade en forêt </name>
    <desc><![CDATA[marche rapide en forêt de Mattstall, Langensoultzbach]]></desc>
  </metadata>
  <trk>
    <name><![CDATA[11-AOU-13 11:48:29]]></name>
    <trkseg>
      <trkpt lat="48.98599" lon="7.75915">
        <ele>214.99</ele>
        <time>2013-08-11T07:31:07Z</time>
      </trkpt>
      <trkpt lat="48.98606" lon="7.75903">
        <ele>214.03</ele>
        <time>2013-08-11T07:31:15Z</time>
      </trkpt>
      <trkpt lat="48.98622" lon="7.75873">
        <ele>231.33</ele>
        <time>2013-08-11T07:31:22Z</time>
      </trkpt>
      <trkpt lat="48.9864" lon="7.75877">
        <ele>245.75</ele>
        <time>2013-08-11T07:32:16Z</time>
      </trkpt>
      <trkpt lat="48.9864" lon="7.75881">
        <ele>250.08</ele>
        <time>2013-08-11T07:33:24Z</time>
      </trkpt>
      <trkpt lat="48.98637" lon="7.75868">
        <ele>253.44</ele>
        <time>2013-08-11T07:33:32Z</time>
      </trkpt>
      <trkpt lat="48.98632" lon="7.75857">
        <ele>256.33</ele>
        <time>2013-08-11T07:33:40Z</time>
      </trkpt>
      <trkpt lat="48.98628" lon="7.75843">
        <ele>256.81</ele>
        <time>2013-08-11T07:33:48Z</time>
      </trkpt>
      <trkpt lat="48.98622" lon="7.75822">
        <ele>255.37</ele>
        <time>2013-08-11T07:33:55Z</time>
      </trkpt>
      <trkpt lat="48.98615" lon="7.75806">
        <ele>254.41</ele>
        <time>2013-08-11T07:34:02Z</time>
      </trkpt>
      <trkpt lat="48.98609" lon="7.7579">
        <ele>252</ele>
        <time>2013-08-11T07:34:11Z</time>
      </trkpt>
      <trkpt lat="48.98602" lon="7.75777">
        <ele>249.6</ele>
        <time>2013-08-11T07:34:18Z</time>
      </trkpt>
      <trkpt lat="48.98596" lon="7.75767">
        <ele>249.6</ele>
        <time>2013-08-11T07:34:24Z</time>
      </trkpt>
      <trkpt lat="48.98591" lon="7.75754">
        <ele>250.56</ele>
        <time>2013-08-11T07:34:31Z</time>
      </trkpt>
      <trkpt lat="48.98586" lon="7.75741">
        <ele>251.04</ele>
        <time>2013-08-11T07:34:38Z</time>
      </trkpt>
      <trkpt lat="48.9858" lon="7.75728">
        <ele>250.08</ele>
        <time>2013-08-11T07:34:45Z</time>
      </trkpt>
      <trkpt lat="48.98575" lon="7.75716">
        <ele>250.56</ele>
        <time>2013-08-11T07:34:52Z</time>
      </trkpt>
      <trkpt lat="48.98571" lon="7.75703">
        <ele>252.96</ele>
        <time>2013-08-11T07:34:59Z</time>
      </trkpt>
      <trkpt lat="48.98565" lon="7.7569">
        <ele>255.37</ele>
        <time>2013-08-11T07:35:06Z</time>
      </trkpt>
      <trkpt lat="48.98559" lon="7.75677">
        <ele>255.37</ele>
        <time>2013-08-11T07:35:13Z</time>
      </trkpt>
      <trkpt lat="48.98552" lon="7.75667">
        <ele>255.85</ele>
        <time>2013-08-11T07:35:19Z</time>
      </trkpt>
      <trkpt lat="48.98546" lon="7.75656">
        <ele>254.41</ele>
        <time>2013-08-11T07:35:25Z</time>
      </trkpt>
      <trkpt lat="48.98538" lon="7.75646">
        <ele>252.48</ele>
        <time>2013-08-11T07:35:31Z</time>
      </trkpt>
      <trkpt lat="48.98531" lon="7.75635">
        <ele>251.52</ele>
        <time>2013-08-11T07:35:37Z</time>
      </trkpt>
      <trkpt lat="48.98524" lon="7.75625">
        <ele>251.04</ele>
        <time>2013-08-11T07:35:43Z</time>
      </trkpt>
      <trkpt lat="48.98518" lon="7.75614">
        <ele>250.56</ele>
        <time>2013-08-11T07:35:49Z</time>
      </trkpt>
      <trkpt lat="48.98513" lon="7.756">
        <ele>249.6</ele>
        <time>2013-08-11T07:35:56Z</time>
      </trkpt>
      <trkpt lat="48.98509" lon="7.7559">
        <ele>245.27</ele>
        <time>2013-08-11T07:36:54Z</time>
      </trkpt>
      <trkpt lat="48.98506" lon="7.75577">
        <ele>246.72</ele>
        <time>2013-08-11T07:37:00Z</time>
      </trkpt>
      <trkpt lat="48.98503" lon="7.75562">
        <ele>245.27</ele>
        <time>2013-08-11T07:37:06Z</time>
      </trkpt>
      <trkpt lat="48.98499" lon="7.75548">
        <ele>245.75</ele>
        <time>2013-08-11T07:37:13Z</time>
      </trkpt>
      <trkpt lat="48.98496" lon="7.75534">
        <ele>245.27</ele>
        <time>2013-08-11T07:37:19Z</time>
      </trkpt>
      <trkpt lat="48.98493" lon="7.7552">
        <ele>245.75</ele>
        <time>2013-08-11T07:37:25Z</time>
      </trkpt>
      <trkpt lat="48.98489" lon="7.75505">
        <ele>245.27</ele>
        <time>2013-08-11T07:37:31Z</time>
      </trkpt>
      <trkpt lat="48.98485" lon="7.75491">
        <ele>245.75</ele>
        <time>2013-08-11T07:37:37Z</time>
      </trkpt>
      <trkpt lat="48.98482" lon="7.75475">
        <ele>244.31</ele>
        <time>2013-08-11T07:37:43Z</time>
      </trkpt>
      <trkpt lat="48.98479" lon="7.75461">
        <ele>243.35</ele>
        <time>2013-08-11T07:37:48Z</time>
      </trkpt>
      <trkpt lat="48.98475" lon="7.75445">
        <ele>242.87</ele>
        <time>2013-08-11T07:37:54Z</time>
      </trkpt>
      <trkpt lat="48.98473" lon="7.75432">
        <ele>241.91</ele>
        <time>2013-08-11T07:37:59Z</time>
      </trkpt>
      <trkpt lat="48.98469" lon="7.75418">
        <ele>241.91</ele>
        <time>2013-08-11T07:38:05Z</time>
      </trkpt>
      <trkpt lat="48.98465" lon="7.75404">
        <ele>242.39</ele>
        <time>2013-08-11T07:38:11Z</time>
      </trkpt>
      <trkpt lat="48.9846" lon="7.7539">
        <ele>242.87</ele>
        <time>2013-08-11T07:38:17Z</time>
      </trkpt>
      <trkpt lat="48.98454" lon="7.75376">
        <ele>242.87</ele>
        <time>2013-08-11T07:38:23Z</time>
      </trkpt>
      <trkpt lat="48.98447" lon="7.75363">
        <ele>242.87</ele>
        <time>2013-08-11T07:38:29Z</time>
      </trkpt>
      <trkpt lat="48.9844" lon="7.75353">
        <ele>244.31</ele>
        <time>2013-08-11T07:38:35Z</time>
      </trkpt>
      <trkpt lat="48.98435" lon="7.75342">
        <ele>246.72</ele>
        <time>2013-08-11T07:38:41Z</time>
      </trkpt>
      <trkpt lat="48.98434" lon="7.75327">
        <ele>250.08</ele>
        <time>2013-08-11T07:38:48Z</time>
      </trkpt>
      <trkpt lat="48.98431" lon="7.75309">
        <ele>253.93</ele>
        <time>2013-08-11T07:38:55Z</time>
      </trkpt>
      <trkpt lat="48.98429" lon="7.75292">
        <ele>259.21</ele>
        <time>2013-08-11T07:39:05Z</time>
      </trkpt>
      <trkpt lat="48.98422" lon="7.75272">
        <ele>262.1</ele>
        <time>2013-08-11T07:39:14Z</time>
      </trkpt>
      <trkpt lat="48.98423" lon="7.75248">
        <ele>265.46</ele>
        <time>2013-08-11T07:39:24Z</time>
      </trkpt>
      <trkpt lat="48.98429" lon="7.75227">
        <ele>268.35</ele>
        <time>2013-08-11T07:39:32Z</time>
      </trkpt>
      <trkpt lat="48.98434" lon="7.75211">
        <ele>269.79</ele>
        <time>2013-08-11T07:39:38Z</time>
      </trkpt>
      <trkpt lat="48.9844" lon="7.75194">
        <ele>273.15</ele>
        <time>2013-08-11T07:39:45Z</time>
      </trkpt>
      <trkpt lat="48.98447" lon="7.7518">
        <ele>275.07</ele>
        <time>2013-08-11T07:39:52Z</time>
      </trkpt>
      <trkpt lat="48.98454" lon="7.75165">
        <ele>278.92</ele>
        <time>2013-08-11T07:39:59Z</time>
      </trkpt>
      <trkpt lat="48.98462" lon="7.75151">
        <ele>282.77</ele>
        <time>2013-08-11T07:40:06Z</time>
      </trkpt>
      <trkpt lat="48.9847" lon="7.75139">
        <ele>285.65</ele>
        <time>2013-08-11T07:40:14Z</time>
      </trkpt>
      <trkpt lat="48.98479" lon="7.75131">
        <ele>286.61</ele>
        <time>2013-08-11T07:40:21Z</time>
      </trkpt>
      <trkpt lat="48.98489" lon="7.75119">
        <ele>288.05</ele>
        <time>2013-08-11T07:40:29Z</time>
      </trkpt>
      <trkpt lat="48.98502" lon="7.75107">
        <ele>293.34</ele>
        <time>2013-08-11T07:40:39Z</time>
      </trkpt>
      <trkpt lat="48.98512" lon="7.75089">
        <ele>299.59</ele>
        <time>2013-08-11T07:40:49Z</time>
      </trkpt>
      <trkpt lat="48.98524" lon="7.75069">
        <ele>304.88</ele>
        <time>2013-08-11T07:41:00Z</time>
      </trkpt>
      <trkpt lat="48.98533" lon="7.75044">
        <ele>309.68</ele>
        <time>2013-08-11T07:41:10Z</time>
      </trkpt>
      <trkpt lat="48.98544" lon="7.75016">
        <ele>313.05</ele>
        <time>2013-08-11T07:41:22Z</time>
      </trkpt>
      <trkpt lat="48.98555" lon="7.74997">
        <ele>313.05</ele>
        <time>2013-08-11T07:41:30Z</time>
      </trkpt>
      <trkpt lat="48.98567" lon="7.74978">
        <ele>313.05</ele>
        <time>2013-08-11T07:41:39Z</time>
      </trkpt>
      <trkpt lat="48.98581" lon="7.74959">
        <ele>314.97</ele>
        <time>2013-08-11T07:41:49Z</time>
      </trkpt>
      <trkpt lat="48.98594" lon="7.74942">
        <ele>318.81</ele>
        <time>2013-08-11T07:41:57Z</time>
      </trkpt>
      <trkpt lat="48.98607" lon="7.74928">
        <ele>323.14</ele>
        <time>2013-08-11T07:42:05Z</time>
      </trkpt>
      <trkpt lat="48.98618" lon="7.74911">
        <ele>326.02</ele>
        <time>2013-08-11T07:42:13Z</time>
      </trkpt>
      <trkpt lat="48.98628" lon="7.74895">
        <ele>326.99</ele>
        <time>2013-08-11T07:42:20Z</time>
      </trkpt>
      <trkpt lat="48.98637" lon="7.74881">
        <ele>323.14</ele>
        <time>2013-08-11T07:42:29Z</time>
      </trkpt>
      <trkpt lat="48.98646" lon="7.74864">
        <ele>319.78</ele>
        <time>2013-08-11T07:42:39Z</time>
      </trkpt>
      <trkpt lat="48.98654" lon="7.74853">
        <ele>314.97</ele>
        <time>2013-08-11T07:42:47Z</time>
      </trkpt>
      <trkpt lat="48.98665" lon="7.74841">
        <ele>315.45</ele>
        <time>2013-08-11T07:42:57Z</time>
      </trkpt>
      <trkpt lat="48.98678" lon="7.74825">
        <ele>319.78</ele>
        <time>2013-08-11T07:43:09Z</time>
      </trkpt>
      <trkpt lat="48.98684" lon="7.74798">
        <ele>326.5</ele>
        <time>2013-08-11T07:43:19Z</time>
      </trkpt>
      <trkpt lat="48.98691" lon="7.74775">
        <ele>330.83</ele>
        <time>2013-08-11T07:43:27Z</time>
      </trkpt>
      <trkpt lat="48.98692" lon="7.74758">
        <ele>326.5</ele>
        <time>2013-08-11T07:43:36Z</time>
      </trkpt>
      <trkpt lat="48.98699" lon="7.74738">
        <ele>321.22</ele>
        <time>2013-08-11T07:43:44Z</time>
      </trkpt>
      <trkpt lat="48.98705" lon="7.74717">
        <ele>316.89</ele>
        <time>2013-08-11T07:43:53Z</time>
      </trkpt>
      <trkpt lat="48.9872" lon="7.74696">
        <ele>311.12</ele>
        <time>2013-08-11T07:44:00Z</time>
      </trkpt>
      <trkpt lat="48.9873" lon="7.74681">
        <ele>299.11</ele>
        <time>2013-08-11T07:44:06Z</time>
      </trkpt>
      <trkpt lat="48.9874" lon="7.7466">
        <ele>283.25</ele>
        <time>2013-08-11T07:44:13Z</time>
      </trkpt>
      <trkpt lat="48.98751" lon="7.74636">
        <ele>266.42</ele>
        <time>2013-08-11T07:44:24Z</time>
      </trkpt>
      <trkpt lat="48.98757" lon="7.74622">
        <ele>259.69</ele>
        <time>2013-08-11T07:44:38Z</time>
      </trkpt>
      <trkpt lat="48.98757" lon="7.7461">
        <ele>254.89</ele>
        <time>2013-08-11T07:44:46Z</time>
      </trkpt>
      <trkpt lat="48.98752" lon="7.74597">
        <ele>251.52</ele>
        <time>2013-08-11T07:44:53Z</time>
      </trkpt>
      <trkpt lat="48.98748" lon="7.74584">
        <ele>250.08</ele>
        <time>2013-08-11T07:45:00Z</time>
      </trkpt>
      <trkpt lat="48.98745" lon="7.7457">
        <ele>248.64</ele>
        <time>2013-08-11T07:45:06Z</time>
      </trkpt>
      <trkpt lat="48.98742" lon="7.74556">
        <ele>247.68</ele>
        <time>2013-08-11T07:45:12Z</time>
      </trkpt>
      <trkpt lat="48.98737" lon="7.74542">
        <ele>246.23</ele>
        <time>2013-08-11T07:45:18Z</time>
      </trkpt>
      <trkpt lat="48.98733" lon="7.74528">
        <ele>246.23</ele>
        <time>2013-08-11T07:45:25Z</time>
      </trkpt>
      <trkpt lat="48.98729" lon="7.74512">
        <ele>245.75</ele>
        <time>2013-08-11T07:45:32Z</time>
      </trkpt>
      <trkpt lat="48.98725" lon="7.74497">
        <ele>244.31</ele>
        <time>2013-08-11T07:45:38Z</time>
      </trkpt>
      <trkpt lat="48.98719" lon="7.74483">
        <ele>244.79</ele>
        <time>2013-08-11T07:45:45Z</time>
      </trkpt>
      <trkpt lat="48.98715" lon="7.74467">
        <ele>245.27</ele>
        <time>2013-08-11T07:45:52Z</time>
      </trkpt>
      <trkpt lat="48.9871" lon="7.74455">
        <ele>244.79</ele>
        <time>2013-08-11T07:45:58Z</time>
      </trkpt>
      <trkpt lat="48.98706" lon="7.7444">
        <ele>244.31</ele>
        <time>2013-08-11T07:46:05Z</time>
      </trkpt>
      <trkpt lat="48.987" lon="7.74426">
        <ele>243.35</ele>
        <time>2013-08-11T07:46:11Z</time>
      </trkpt>
      <trkpt lat="48.98695" lon="7.74412">
        <ele>244.31</ele>
        <time>2013-08-11T07:46:17Z</time>
      </trkpt>
      <trkpt lat="48.9869" lon="7.74397">
        <ele>244.31</ele>
        <time>2013-08-11T07:46:24Z</time>
      </trkpt>
      <trkpt lat="48.98685" lon="7.74381">
        <ele>242.87</ele>
        <time>2013-08-11T07:46:31Z</time>
      </trkpt>
      <trkpt lat="48.98682" lon="7.74365">
        <ele>242.39</ele>
        <time>2013-08-11T07:46:38Z</time>
      </trkpt>
      <trkpt lat="48.98679" lon="7.7435">
        <ele>243.35</ele>
        <time>2013-08-11T07:46:44Z</time>
      </trkpt>
      <trkpt lat="48.98676" lon="7.74334">
        <ele>246.23</ele>
        <time>2013-08-11T07:46:52Z</time>
      </trkpt>
      <trkpt lat="48.98672" lon="7.74317">
        <ele>246.72</ele>
        <time>2013-08-11T07:46:59Z</time>
      </trkpt>
      <trkpt lat="48.98671" lon="7.74299">
        <ele>247.2</ele>
        <time>2013-08-11T07:47:06Z</time>
      </trkpt>
      <trkpt lat="48.98668" lon="7.74283">
        <ele>246.23</ele>
        <time>2013-08-11T07:47:13Z</time>
      </trkpt>
      <trkpt lat="48.98666" lon="7.74264">
        <ele>245.75</ele>
        <time>2013-08-11T07:47:20Z</time>
      </trkpt>
      <trkpt lat="48.98666" lon="7.74247">
        <ele>246.23</ele>
        <time>2013-08-11T07:47:27Z</time>
      </trkpt>
      <trkpt lat="48.98665" lon="7.74231">
        <ele>244.79</ele>
        <time>2013-08-11T07:47:34Z</time>
      </trkpt>
      <trkpt lat="48.98668" lon="7.74218">
        <ele>243.83</ele>
        <time>2013-08-11T07:47:42Z</time>
      </trkpt>
      <trkpt lat="48.98667" lon="7.74201">
        <ele>245.75</ele>
        <time>2013-08-11T07:48:05Z</time>
      </trkpt>
      <trkpt lat="48.98661" lon="7.74185">
        <ele>248.64</ele>
        <time>2013-08-11T07:48:20Z</time>
      </trkpt>
      <trkpt lat="48.98641" lon="7.74168">
        <ele>249.12</ele>
        <time>2013-08-11T07:49:40Z</time>
      </trkpt>
      <trkpt lat="48.98647" lon="7.74149">
        <ele>254.89</ele>
        <time>2013-08-11T07:49:54Z</time>
      </trkpt>
      <trkpt lat="48.98657" lon="7.74119">
        <ele>256.81</ele>
        <time>2013-08-11T07:50:05Z</time>
      </trkpt>
      <trkpt lat="48.98662" lon="7.74095">
        <ele>255.37</ele>
        <time>2013-08-11T07:50:15Z</time>
      </trkpt>
      <trkpt lat="48.98669" lon="7.74071">
        <ele>252.96</ele>
        <time>2013-08-11T07:50:25Z</time>
      </trkpt>
      <trkpt lat="48.98678" lon="7.74045">
        <ele>248.64</ele>
        <time>2013-08-11T07:50:36Z</time>
      </trkpt>
      <trkpt lat="48.98684" lon="7.74023">
        <ele>247.2</ele>
        <time>2013-08-11T07:50:46Z</time>
      </trkpt>
      <trkpt lat="48.9869" lon="7.74005">
        <ele>246.72</ele>
        <time>2013-08-11T07:50:55Z</time>
      </trkpt>
      <trkpt lat="48.98695" lon="7.73983">
        <ele>246.23</ele>
        <time>2013-08-11T07:51:06Z</time>
      </trkpt>
      <trkpt lat="48.987" lon="7.73963">
        <ele>246.72</ele>
        <time>2013-08-11T07:51:17Z</time>
      </trkpt>
      <trkpt lat="48.98709" lon="7.73944">
        <ele>247.2</ele>
        <time>2013-08-11T07:51:28Z</time>
      </trkpt>
      <trkpt lat="48.98717" lon="7.73922">
        <ele>251.04</ele>
        <time>2013-08-11T07:51:42Z</time>
      </trkpt>
      <trkpt lat="48.98718" lon="7.73905">
        <ele>260.17</ele>
        <time>2013-08-11T07:52:05Z</time>
      </trkpt>
      <trkpt lat="48.98724" lon="7.73884">
        <ele>270.27</ele>
        <time>2013-08-11T07:52:19Z</time>
      </trkpt>
      <trkpt lat="48.98736" lon="7.73862">
        <ele>278.44</ele>
        <time>2013-08-11T07:52:35Z</time>
      </trkpt>
      <trkpt lat="48.98745" lon="7.73839">
        <ele>286.13</ele>
        <time>2013-08-11T07:52:51Z</time>
      </trkpt>
      <trkpt lat="48.98753" lon="7.73814">
        <ele>295.26</ele>
        <time>2013-08-11T07:53:07Z</time>
      </trkpt>
      <trkpt lat="48.98756" lon="7.73794">
        <ele>301.51</ele>
        <time>2013-08-11T07:53:17Z</time>
      </trkpt>
      <trkpt lat="48.98764" lon="7.73773">
        <ele>306.32</ele>
        <time>2013-08-11T07:53:27Z</time>
      </trkpt>
      <trkpt lat="48.98779" lon="7.73756">
        <ele>311.12</ele>
        <time>2013-08-11T07:53:45Z</time>
      </trkpt>
      <trkpt lat="48.98796" lon="7.73739">
        <ele>317.37</ele>
        <time>2013-08-11T07:53:57Z</time>
      </trkpt>
      <trkpt lat="48.98822" lon="7.73713">
        <ele>318.81</ele>
        <time>2013-08-11T07:54:13Z</time>
      </trkpt>
      <trkpt lat="48.98838" lon="7.73711">
        <ele>319.78</ele>
        <time>2013-08-11T07:54:22Z</time>
      </trkpt>
      <trkpt lat="48.9885" lon="7.73706">
        <ele>318.81</ele>
        <time>2013-08-11T07:54:30Z</time>
      </trkpt>
      <trkpt lat="48.98862" lon="7.73693">
        <ele>314.01</ele>
        <time>2013-08-11T07:54:38Z</time>
      </trkpt>
      <trkpt lat="48.98874" lon="7.73683">
        <ele>312.57</ele>
        <time>2013-08-11T07:54:46Z</time>
      </trkpt>
      <trkpt lat="48.98887" lon="7.73671">
        <ele>314.49</ele>
        <time>2013-08-11T07:54:56Z</time>
      </trkpt>
      <trkpt lat="48.98902" lon="7.73664">
        <ele>319.3</ele>
        <time>2013-08-11T07:55:09Z</time>
      </trkpt>
      <trkpt lat="48.98912" lon="7.73657">
        <ele>323.14</ele>
        <time>2013-08-11T07:55:18Z</time>
      </trkpt>
      <trkpt lat="48.98923" lon="7.73653">
        <ele>324.58</ele>
        <time>2013-08-11T07:55:27Z</time>
      </trkpt>
      <trkpt lat="48.98933" lon="7.73647">
        <ele>324.58</ele>
        <time>2013-08-11T07:55:34Z</time>
      </trkpt>
      <trkpt lat="48.98944" lon="7.7364">
        <ele>325.54</ele>
        <time>2013-08-11T07:55:43Z</time>
      </trkpt>
      <trkpt lat="48.98956" lon="7.73634">
        <ele>328.43</ele>
        <time>2013-08-11T07:55:52Z</time>
      </trkpt>
      <trkpt lat="48.98967" lon="7.73627">
        <ele>333.23</ele>
        <time>2013-08-11T07:56:01Z</time>
      </trkpt>
      <trkpt lat="48.98982" lon="7.73621">
        <ele>335.16</ele>
        <time>2013-08-11T07:56:10Z</time>
      </trkpt>
      <trkpt lat="48.98996" lon="7.7361">
        <ele>333.71</ele>
        <time>2013-08-11T07:56:19Z</time>
      </trkpt>
      <trkpt lat="48.99009" lon="7.73607">
        <ele>335.64</ele>
        <time>2013-08-11T07:56:28Z</time>
      </trkpt>
      <trkpt lat="48.99023" lon="7.73608">
        <ele>337.08</ele>
        <time>2013-08-11T07:56:36Z</time>
      </trkpt>
      <trkpt lat="48.99038" lon="7.73613">
        <ele>339.48</ele>
        <time>2013-08-11T07:56:45Z</time>
      </trkpt>
      <trkpt lat="48.99053" lon="7.73618">
        <ele>341.41</ele>
        <time>2013-08-11T07:56:54Z</time>
      </trkpt>
      <trkpt lat="48.9907" lon="7.73616">
        <ele>341.41</ele>
        <time>2013-08-11T07:57:02Z</time>
      </trkpt>
      <trkpt lat="48.99085" lon="7.73606">
        <ele>338.04</ele>
        <time>2013-08-11T07:57:09Z</time>
      </trkpt>
      <trkpt lat="48.99094" lon="7.73596">
        <ele>338.04</ele>
        <time>2013-08-11T07:57:14Z</time>
      </trkpt>
      <trkpt lat="48.99102" lon="7.73583">
        <ele>338.52</ele>
        <time>2013-08-11T07:57:19Z</time>
      </trkpt>
      <trkpt lat="48.99111" lon="7.73564">
        <ele>337.56</ele>
        <time>2013-08-11T07:57:27Z</time>
      </trkpt>
      <trkpt lat="48.99123" lon="7.73544">
        <ele>336.6</ele>
        <time>2013-08-11T07:57:37Z</time>
      </trkpt>
      <trkpt lat="48.99136" lon="7.73531">
        <ele>339</ele>
        <time>2013-08-11T07:57:47Z</time>
      </trkpt>
      <trkpt lat="48.99148" lon="7.73518">
        <ele>342.85</ele>
        <time>2013-08-11T07:57:55Z</time>
      </trkpt>
      <trkpt lat="48.99159" lon="7.73512">
        <ele>345.25</ele>
        <time>2013-08-11T07:58:03Z</time>
      </trkpt>
      <trkpt lat="48.9917" lon="7.73505">
        <ele>347.17</ele>
        <time>2013-08-11T07:58:11Z</time>
      </trkpt>
      <trkpt lat="48.99181" lon="7.73503">
        <ele>349.58</ele>
        <time>2013-08-11T07:58:19Z</time>
      </trkpt>
      <trkpt lat="48.99193" lon="7.73491">
        <ele>356.31</ele>
        <time>2013-08-11T07:58:29Z</time>
      </trkpt>
      <trkpt lat="48.99206" lon="7.73481">
        <ele>369.76</ele>
        <time>2013-08-11T07:58:40Z</time>
      </trkpt>
      <trkpt lat="48.99219" lon="7.73468">
        <ele>383.22</ele>
        <time>2013-08-11T07:58:52Z</time>
      </trkpt>
      <trkpt lat="48.99232" lon="7.73444">
        <ele>386.11</ele>
        <time>2013-08-11T07:59:04Z</time>
      </trkpt>
      <trkpt lat="48.99247" lon="7.73428">
        <ele>397.16</ele>
        <time>2013-08-11T07:59:17Z</time>
      </trkpt>
      <trkpt lat="48.99262" lon="7.73414">
        <ele>406.29</ele>
        <time>2013-08-11T07:59:28Z</time>
      </trkpt>
      <trkpt lat="48.99279" lon="7.73397">
        <ele>414.95</ele>
        <time>2013-08-11T07:59:44Z</time>
      </trkpt>
      <trkpt lat="48.993" lon="7.73382">
        <ele>416.87</ele>
        <time>2013-08-11T07:59:56Z</time>
      </trkpt>
      <trkpt lat="48.99319" lon="7.73364">
        <ele>417.35</ele>
        <time>2013-08-11T08:00:06Z</time>
      </trkpt>
      <trkpt lat="48.99333" lon="7.73354">
        <ele>420.71</ele>
        <time>2013-08-11T08:00:16Z</time>
      </trkpt>
      <trkpt lat="48.99347" lon="7.73345">
        <ele>423.12</ele>
        <time>2013-08-11T08:00:27Z</time>
      </trkpt>
      <trkpt lat="48.9936" lon="7.73333">
        <ele>423.6</ele>
        <time>2013-08-11T08:00:36Z</time>
      </trkpt>
      <trkpt lat="48.99366" lon="7.73322">
        <ele>421.19</ele>
        <time>2013-08-11T08:00:46Z</time>
      </trkpt>
      <trkpt lat="48.99372" lon="7.73322">
        <ele>418.79</ele>
        <time>2013-08-11T08:00:57Z</time>
      </trkpt>
      <trkpt lat="48.99382" lon="7.7332">
        <ele>416.39</ele>
        <time>2013-08-11T08:01:07Z</time>
      </trkpt>
      <trkpt lat="48.99394" lon="7.7332">
        <ele>415.43</ele>
        <time>2013-08-11T08:01:15Z</time>
      </trkpt>
      <trkpt lat="48.99406" lon="7.73322">
        <ele>413.5</ele>
        <time>2013-08-11T08:01:23Z</time>
      </trkpt>
      <trkpt lat="48.99418" lon="7.73325">
        <ele>411.58</ele>
        <time>2013-08-11T08:01:32Z</time>
      </trkpt>
      <trkpt lat="48.99432" lon="7.73329">
        <ele>407.26</ele>
        <time>2013-08-11T08:01:40Z</time>
      </trkpt>
      <trkpt lat="48.99447" lon="7.73332">
        <ele>402.45</ele>
        <time>2013-08-11T08:01:48Z</time>
      </trkpt>
      <trkpt lat="48.9946" lon="7.73334">
        <ele>401.49</ele>
        <time>2013-08-11T08:01:54Z</time>
      </trkpt>
      <trkpt lat="48.99474" lon="7.73337">
        <ele>400.05</ele>
        <time>2013-08-11T08:02:01Z</time>
      </trkpt>
      <trkpt lat="48.99486" lon="7.7334">
        <ele>399.57</ele>
        <time>2013-08-11T08:02:08Z</time>
      </trkpt>
      <trkpt lat="48.99499" lon="7.73343">
        <ele>399.57</ele>
        <time>2013-08-11T08:02:16Z</time>
      </trkpt>
      <trkpt lat="48.99512" lon="7.73346">
        <ele>401.01</ele>
        <time>2013-08-11T08:02:25Z</time>
      </trkpt>
      <trkpt lat="48.99523" lon="7.73346">
        <ele>400.53</ele>
        <time>2013-08-11T08:02:33Z</time>
      </trkpt>
      <trkpt lat="48.99538" lon="7.73345">
        <ele>396.68</ele>
        <time>2013-08-11T08:02:42Z</time>
      </trkpt>
      <trkpt lat="48.99553" lon="7.73342">
        <ele>391.87</ele>
        <time>2013-08-11T08:02:52Z</time>
      </trkpt>
      <trkpt lat="48.99571" lon="7.73337">
        <ele>393.8</ele>
        <time>2013-08-11T08:03:01Z</time>
      </trkpt>
      <trkpt lat="48.99588" lon="7.73336">
        <ele>393.32</ele>
        <time>2013-08-11T08:03:11Z</time>
      </trkpt>
      <trkpt lat="48.99604" lon="7.73333">
        <ele>390.43</ele>
        <time>2013-08-11T08:03:19Z</time>
      </trkpt>
      <trkpt lat="48.99623" lon="7.73332">
        <ele>388.99</ele>
        <time>2013-08-11T08:03:30Z</time>
      </trkpt>
      <trkpt lat="48.9964" lon="7.7333">
        <ele>382.26</ele>
        <time>2013-08-11T08:03:40Z</time>
      </trkpt>
      <trkpt lat="48.99655" lon="7.7333">
        <ele>380.82</ele>
        <time>2013-08-11T08:03:48Z</time>
      </trkpt>
      <trkpt lat="48.9967" lon="7.73331">
        <ele>381.3</ele>
        <time>2013-08-11T08:03:57Z</time>
      </trkpt>
      <trkpt lat="48.99686" lon="7.73319">
        <ele>373.13</ele>
        <time>2013-08-11T08:04:13Z</time>
      </trkpt>
      <trkpt lat="48.99707" lon="7.73309">
        <ele>373.61</ele>
        <time>2013-08-11T08:04:25Z</time>
      </trkpt>
      <trkpt lat="48.99721" lon="7.73294">
        <ele>378.9</ele>
        <time>2013-08-11T08:04:36Z</time>
      </trkpt>
      <trkpt lat="48.99735" lon="7.73272">
        <ele>380.34</ele>
        <time>2013-08-11T08:04:48Z</time>
      </trkpt>
      <trkpt lat="48.99745" lon="7.73253">
        <ele>377.45</ele>
        <time>2013-08-11T08:04:58Z</time>
      </trkpt>
      <trkpt lat="48.99758" lon="7.73236">
        <ele>373.13</ele>
        <time>2013-08-11T08:05:08Z</time>
      </trkpt>
      <trkpt lat="48.99774" lon="7.73224">
        <ele>365.92</ele>
        <time>2013-08-11T08:05:19Z</time>
      </trkpt>
      <trkpt lat="48.99788" lon="7.73215">
        <ele>360.63</ele>
        <time>2013-08-11T08:05:27Z</time>
      </trkpt>
      <trkpt lat="48.99805" lon="7.73209">
        <ele>356.31</ele>
        <time>2013-08-11T08:05:37Z</time>
      </trkpt>
      <trkpt lat="48.99822" lon="7.73207">
        <ele>356.31</ele>
        <time>2013-08-11T08:05:47Z</time>
      </trkpt>
      <trkpt lat="48.99838" lon="7.7319">
        <ele>356.79</ele>
        <time>2013-08-11T08:05:56Z</time>
      </trkpt>
      <trkpt lat="48.9985" lon="7.73181">
        <ele>352.46</ele>
        <time>2013-08-11T08:06:05Z</time>
      </trkpt>
      <trkpt lat="48.99862" lon="7.73177">
        <ele>345.25</ele>
        <time>2013-08-11T08:06:12Z</time>
      </trkpt>
      <trkpt lat="48.99874" lon="7.73172">
        <ele>335.64</ele>
        <time>2013-08-11T08:06:21Z</time>
      </trkpt>
      <trkpt lat="48.99885" lon="7.73168">
        <ele>328.43</ele>
        <time>2013-08-11T08:06:29Z</time>
      </trkpt>
      <trkpt lat="48.99898" lon="7.73168">
        <ele>321.7</ele>
        <time>2013-08-11T08:06:37Z</time>
      </trkpt>
      <trkpt lat="48.99912" lon="7.73171">
        <ele>316.41</ele>
        <time>2013-08-11T08:06:45Z</time>
      </trkpt>
      <trkpt lat="48.99925" lon="7.73174">
        <ele>316.89</ele>
        <time>2013-08-11T08:06:52Z</time>
      </trkpt>
      <trkpt lat="48.99941" lon="7.73177">
        <ele>319.3</ele>
        <time>2013-08-11T08:07:02Z</time>
      </trkpt>
      <trkpt lat="48.99956" lon="7.73182">
        <ele>322.66</ele>
        <time>2013-08-11T08:07:10Z</time>
      </trkpt>
      <trkpt lat="48.99972" lon="7.73187">
        <ele>321.22</ele>
        <time>2013-08-11T08:07:19Z</time>
      </trkpt>
      <trkpt lat="48.9999" lon="7.73193">
        <ele>319.3</ele>
        <time>2013-08-11T08:07:28Z</time>
      </trkpt>
      <trkpt lat="49.00006" lon="7.73197">
        <ele>320.26</ele>
        <time>2013-08-11T08:07:37Z</time>
      </trkpt>
      <trkpt lat="49.0002" lon="7.73202">
        <ele>321.7</ele>
        <time>2013-08-11T08:07:45Z</time>
      </trkpt>
      <trkpt lat="49.00035" lon="7.73206">
        <ele>321.22</ele>
        <time>2013-08-11T08:07:54Z</time>
      </trkpt>
      <trkpt lat="49.00049" lon="7.73211">
        <ele>319.78</ele>
        <time>2013-08-11T08:08:02Z</time>
      </trkpt>
      <trkpt lat="49.00064" lon="7.73213">
        <ele>316.41</ele>
        <time>2013-08-11T08:08:12Z</time>
      </trkpt>
      <trkpt lat="49.00081" lon="7.73214">
        <ele>313.05</ele>
        <time>2013-08-11T08:08:22Z</time>
      </trkpt>
      <trkpt lat="49.00095" lon="7.73214">
        <ele>308.72</ele>
        <time>2013-08-11T08:08:30Z</time>
      </trkpt>
      <trkpt lat="49.0011" lon="7.73217">
        <ele>300.55</ele>
        <time>2013-08-11T08:08:39Z</time>
      </trkpt>
      <trkpt lat="49.00126" lon="7.73212">
        <ele>296.22</ele>
        <time>2013-08-11T08:08:49Z</time>
      </trkpt>
      <trkpt lat="49.00139" lon="7.73203">
        <ele>297.67</ele>
        <time>2013-08-11T08:08:56Z</time>
      </trkpt>
      <trkpt lat="49.00152" lon="7.73191">
        <ele>299.59</ele>
        <time>2013-08-11T08:09:06Z</time>
      </trkpt>
      <trkpt lat="49.00169" lon="7.73187">
        <ele>302.95</ele>
        <time>2013-08-11T08:09:16Z</time>
      </trkpt>
      <trkpt lat="49.00184" lon="7.73179">
        <ele>306.8</ele>
        <time>2013-08-11T08:09:25Z</time>
      </trkpt>
      <trkpt lat="49.00196" lon="7.73175">
        <ele>312.09</ele>
        <time>2013-08-11T08:09:35Z</time>
      </trkpt>
      <trkpt lat="49.00211" lon="7.73166">
        <ele>316.41</ele>
        <time>2013-08-11T08:09:44Z</time>
      </trkpt>
      <trkpt lat="49.00225" lon="7.73163">
        <ele>318.33</ele>
        <time>2013-08-11T08:09:52Z</time>
      </trkpt>
      <trkpt lat="49.00236" lon="7.73165">
        <ele>320.26</ele>
        <time>2013-08-11T08:10:01Z</time>
      </trkpt>
      <trkpt lat="49.00247" lon="7.73164">
        <ele>321.7</ele>
        <time>2013-08-11T08:10:09Z</time>
      </trkpt>
      <trkpt lat="49.00261" lon="7.73161">
        <ele>325.54</ele>
        <time>2013-08-11T08:10:20Z</time>
      </trkpt>
      <trkpt lat="49.0028" lon="7.7314">
        <ele>337.08</ele>
        <time>2013-08-11T08:10:39Z</time>
      </trkpt>
      <trkpt lat="49.00296" lon="7.73121">
        <ele>353.42</ele>
        <time>2013-08-11T08:10:54Z</time>
      </trkpt>
      <trkpt lat="49.00312" lon="7.73096">
        <ele>373.61</ele>
        <time>2013-08-11T08:11:12Z</time>
      </trkpt>
      <trkpt lat="49.00329" lon="7.73069">
        <ele>389.47</ele>
        <time>2013-08-11T08:11:35Z</time>
      </trkpt>
      <trkpt lat="49.00348" lon="7.7303">
        <ele>404.37</ele>
        <time>2013-08-11T08:11:56Z</time>
      </trkpt>
      <trkpt lat="49.00367" lon="7.72977">
        <ele>411.58</ele>
        <time>2013-08-11T08:12:16Z</time>
      </trkpt>
      <trkpt lat="49.00381" lon="7.72957">
        <ele>410.14</ele>
        <time>2013-08-11T08:12:27Z</time>
      </trkpt>
      <trkpt lat="49.004" lon="7.72941">
        <ele>410.62</ele>
        <time>2013-08-11T08:12:42Z</time>
      </trkpt>
      <trkpt lat="49.00417" lon="7.72923">
        <ele>412.54</ele>
        <time>2013-08-11T08:12:54Z</time>
      </trkpt>
      <trkpt lat="49.00436" lon="7.72901">
        <ele>413.02</ele>
        <time>2013-08-11T08:13:09Z</time>
      </trkpt>
      <trkpt lat="49.00452" lon="7.7289">
        <ele>412.06</ele>
        <time>2013-08-11T08:13:20Z</time>
      </trkpt>
      <trkpt lat="49.00467" lon="7.72877">
        <ele>413.98</ele>
        <time>2013-08-11T08:13:30Z</time>
      </trkpt>
      <trkpt lat="49.00485" lon="7.72857">
        <ele>414.47</ele>
        <time>2013-08-11T08:13:41Z</time>
      </trkpt>
      <trkpt lat="49.00501" lon="7.72835">
        <ele>416.39</ele>
        <time>2013-08-11T08:13:55Z</time>
      </trkpt>
      <trkpt lat="49.00517" lon="7.72813">
        <ele>416.39</ele>
        <time>2013-08-11T08:14:09Z</time>
      </trkpt>
      <trkpt lat="49.00531" lon="7.72788">
        <ele>414.95</ele>
        <time>2013-08-11T08:14:19Z</time>
      </trkpt>
      <trkpt lat="49.00543" lon="7.72772">
        <ele>411.58</ele>
        <time>2013-08-11T08:14:26Z</time>
      </trkpt>
      <trkpt lat="49.00556" lon="7.72757">
        <ele>403.89</ele>
        <time>2013-08-11T08:14:35Z</time>
      </trkpt>
      <trkpt lat="49.00568" lon="7.7275">
        <ele>396.68</ele>
        <time>2013-08-11T08:14:43Z</time>
      </trkpt>
      <trkpt lat="49.0058" lon="7.72747">
        <ele>392.84</ele>
        <time>2013-08-11T08:14:49Z</time>
      </trkpt>
      <trkpt lat="49.00592" lon="7.72745">
        <ele>388.51</ele>
        <time>2013-08-11T08:14:55Z</time>
      </trkpt>
      <trkpt lat="49.00605" lon="7.72744">
        <ele>386.11</ele>
        <time>2013-08-11T08:15:02Z</time>
      </trkpt>
      <trkpt lat="49.00617" lon="7.72739">
        <ele>383.22</ele>
        <time>2013-08-11T08:15:09Z</time>
      </trkpt>
      <trkpt lat="49.00627" lon="7.72737">
        <ele>379.38</ele>
        <time>2013-08-11T08:15:15Z</time>
      </trkpt>
      <trkpt lat="49.00639" lon="7.72736">
        <ele>376.97</ele>
        <time>2013-08-11T08:15:22Z</time>
      </trkpt>
      <trkpt lat="49.00652" lon="7.72737">
        <ele>374.57</ele>
        <time>2013-08-11T08:15:29Z</time>
      </trkpt>
      <trkpt lat="49.00665" lon="7.72737">
        <ele>370.73</ele>
        <time>2013-08-11T08:15:36Z</time>
      </trkpt>
      <trkpt lat="49.00678" lon="7.72738">
        <ele>365.92</ele>
        <time>2013-08-11T08:15:44Z</time>
      </trkpt>
      <trkpt lat="49.00693" lon="7.72743">
        <ele>362.07</ele>
        <time>2013-08-11T08:15:52Z</time>
      </trkpt>
      <trkpt lat="49.00711" lon="7.72748">
        <ele>356.79</ele>
        <time>2013-08-11T08:16:04Z</time>
      </trkpt>
      <trkpt lat="49.00725" lon="7.7275">
        <ele>352.94</ele>
        <time>2013-08-11T08:16:12Z</time>
      </trkpt>
      <trkpt lat="49.00746" lon="7.72749">
        <ele>352.94</ele>
        <time>2013-08-11T08:16:30Z</time>
      </trkpt>
      <trkpt lat="49.00759" lon="7.72749">
        <ele>349.58</ele>
        <time>2013-08-11T08:16:39Z</time>
      </trkpt>
      <trkpt lat="49.00771" lon="7.72753">
        <ele>346.69</ele>
        <time>2013-08-11T08:16:47Z</time>
      </trkpt>
      <trkpt lat="49.00785" lon="7.72749">
        <ele>344.29</ele>
        <time>2013-08-11T08:16:55Z</time>
      </trkpt>
      <trkpt lat="49.00799" lon="7.72745">
        <ele>342.85</ele>
        <time>2013-08-11T08:17:05Z</time>
      </trkpt>
      <trkpt lat="49.00811" lon="7.72744">
        <ele>344.29</ele>
        <time>2013-08-11T08:17:15Z</time>
      </trkpt>
      <trkpt lat="49.00828" lon="7.72733">
        <ele>341.89</ele>
        <time>2013-08-11T08:17:29Z</time>
      </trkpt>
      <trkpt lat="49.00843" lon="7.72721">
        <ele>343.33</ele>
        <time>2013-08-11T08:17:40Z</time>
      </trkpt>
      <trkpt lat="49.00856" lon="7.72711">
        <ele>339.96</ele>
        <time>2013-08-11T08:17:51Z</time>
      </trkpt>
      <trkpt lat="49.00874" lon="7.72703">
        <ele>341.89</ele>
        <time>2013-08-11T08:18:03Z</time>
      </trkpt>
      <trkpt lat="49.00886" lon="7.72684">
        <ele>351.98</ele>
        <time>2013-08-11T08:18:11Z</time>
      </trkpt>
      <trkpt lat="49.00895" lon="7.72662">
        <ele>361.11</ele>
        <time>2013-08-11T08:18:20Z</time>
      </trkpt>
      <trkpt lat="49.009" lon="7.72642">
        <ele>359.19</ele>
        <time>2013-08-11T08:18:30Z</time>
      </trkpt>
      <trkpt lat="49.00897" lon="7.72615">
        <ele>357.75</ele>
        <time>2013-08-11T08:18:49Z</time>
      </trkpt>
      <trkpt lat="49.00904" lon="7.72584">
        <ele>362.07</ele>
        <time>2013-08-11T08:18:58Z</time>
      </trkpt>
      <trkpt lat="49.00909" lon="7.72562">
        <ele>366.4</ele>
        <time>2013-08-11T08:19:03Z</time>
      </trkpt>
      <trkpt lat="49.00912" lon="7.72543">
        <ele>370.73</ele>
        <time>2013-08-11T08:19:08Z</time>
      </trkpt>
      <trkpt lat="49.00917" lon="7.72523">
        <ele>375.53</ele>
        <time>2013-08-11T08:19:14Z</time>
      </trkpt>
      <trkpt lat="49.00924" lon="7.72501">
        <ele>381.3</ele>
        <time>2013-08-11T08:19:21Z</time>
      </trkpt>
      <trkpt lat="49.0093" lon="7.7247">
        <ele>387.07</ele>
        <time>2013-08-11T08:19:32Z</time>
      </trkpt>
      <trkpt lat="49.00929" lon="7.72443">
        <ele>391.87</ele>
        <time>2013-08-11T08:19:44Z</time>
      </trkpt>
      <trkpt lat="49.00916" lon="7.72429">
        <ele>388.51</ele>
        <time>2013-08-11T08:19:58Z</time>
      </trkpt>
      <trkpt lat="49.00901" lon="7.72444">
        <ele>388.03</ele>
        <time>2013-08-11T08:20:14Z</time>
      </trkpt>
      <trkpt lat="49.00897" lon="7.72462">
        <ele>385.63</ele>
        <time>2013-08-11T08:20:28Z</time>
      </trkpt>
      <trkpt lat="49.009" lon="7.72476">
        <ele>382.26</ele>
        <time>2013-08-11T08:20:38Z</time>
      </trkpt>
      <trkpt lat="49.00907" lon="7.72491">
        <ele>379.86</ele>
        <time>2013-08-11T08:20:48Z</time>
      </trkpt>
      <trkpt lat="49.00916" lon="7.72508">
        <ele>379.38</ele>
        <time>2013-08-11T08:21:00Z</time>
      </trkpt>
      <trkpt lat="49.00929" lon="7.72525">
        <ele>381.3</ele>
        <time>2013-08-11T08:21:11Z</time>
      </trkpt>
      <trkpt lat="49.00947" lon="7.72536">
        <ele>380.82</ele>
        <time>2013-08-11T08:21:24Z</time>
      </trkpt>
      <trkpt lat="49.00961" lon="7.72533">
        <ele>381.78</ele>
        <time>2013-08-11T08:21:35Z</time>
      </trkpt>
      <trkpt lat="49.00975" lon="7.72526">
        <ele>383.22</ele>
        <time>2013-08-11T08:21:46Z</time>
      </trkpt>
      <trkpt lat="49.00988" lon="7.72515">
        <ele>382.26</ele>
        <time>2013-08-11T08:21:55Z</time>
      </trkpt>
      <trkpt lat="49.01001" lon="7.72513">
        <ele>378.42</ele>
        <time>2013-08-11T08:22:05Z</time>
      </trkpt>
      <trkpt lat="49.01016" lon="7.72505">
        <ele>376.49</ele>
        <time>2013-08-11T08:22:14Z</time>
      </trkpt>
      <trkpt lat="49.01031" lon="7.72502">
        <ele>374.57</ele>
        <time>2013-08-11T08:22:24Z</time>
      </trkpt>
      <trkpt lat="49.01044" lon="7.72505">
        <ele>375.53</ele>
        <time>2013-08-11T08:22:33Z</time>
      </trkpt>
      <trkpt lat="49.01058" lon="7.72503">
        <ele>373.61</ele>
        <time>2013-08-11T08:22:42Z</time>
      </trkpt>
      <trkpt lat="49.0107" lon="7.72502">
        <ele>374.57</ele>
        <time>2013-08-11T08:22:50Z</time>
      </trkpt>
      <trkpt lat="49.01084" lon="7.72502">
        <ele>376.01</ele>
        <time>2013-08-11T08:22:59Z</time>
      </trkpt>
      <trkpt lat="49.01099" lon="7.72501">
        <ele>377.45</ele>
        <time>2013-08-11T08:23:09Z</time>
      </trkpt>
      <trkpt lat="49.01116" lon="7.72499">
        <ele>380.82</ele>
        <time>2013-08-11T08:23:21Z</time>
      </trkpt>
      <trkpt lat="49.0113" lon="7.72499">
        <ele>385.63</ele>
        <time>2013-08-11T08:23:32Z</time>
      </trkpt>
      <trkpt lat="49.01143" lon="7.72506">
        <ele>390.91</ele>
        <time>2013-08-11T08:23:43Z</time>
      </trkpt>
      <trkpt lat="49.01156" lon="7.72516">
        <ele>396.2</ele>
        <time>2013-08-11T08:23:52Z</time>
      </trkpt>
      <trkpt lat="49.01172" lon="7.7252">
        <ele>405.33</ele>
        <time>2013-08-11T08:24:04Z</time>
      </trkpt>
      <trkpt lat="49.01182" lon="7.72531">
        <ele>407.74</ele>
        <time>2013-08-11T08:24:14Z</time>
      </trkpt>
      <trkpt lat="49.01205" lon="7.7254">
        <ele>406.77</ele>
        <time>2013-08-11T08:24:21Z</time>
      </trkpt>
      <trkpt lat="49.01222" lon="7.72553">
        <ele>398.6</ele>
        <time>2013-08-11T08:24:36Z</time>
      </trkpt>
      <trkpt lat="49.01235" lon="7.72563">
        <ele>391.87</ele>
        <time>2013-08-11T08:24:46Z</time>
      </trkpt>
      <trkpt lat="49.01242" lon="7.72575">
        <ele>382.26</ele>
        <time>2013-08-11T08:25:13Z</time>
      </trkpt>
      <trkpt lat="49.01252" lon="7.72599">
        <ele>386.59</ele>
        <time>2013-08-11T08:25:25Z</time>
      </trkpt>
      <trkpt lat="49.01256" lon="7.72609">
        <ele>406.77</ele>
        <time>2013-08-11T08:25:42Z</time>
      </trkpt>
      <trkpt lat="49.01256" lon="7.72623">
        <ele>427.44</ele>
        <time>2013-08-11T08:25:57Z</time>
      </trkpt>
      <trkpt lat="49.01259" lon="7.72639">
        <ele>446.19</ele>
        <time>2013-08-11T08:26:13Z</time>
      </trkpt>
      <trkpt lat="49.01267" lon="7.72656">
        <ele>455.32</ele>
        <time>2013-08-11T08:26:23Z</time>
      </trkpt>
      <trkpt lat="49.0128" lon="7.7267">
        <ele>458.21</ele>
        <time>2013-08-11T08:26:32Z</time>
      </trkpt>
      <trkpt lat="49.01292" lon="7.72684">
        <ele>459.65</ele>
        <time>2013-08-11T08:26:45Z</time>
      </trkpt>
      <trkpt lat="49.01301" lon="7.72695">
        <ele>459.65</ele>
        <time>2013-08-11T08:26:55Z</time>
      </trkpt>
      <trkpt lat="49.0131" lon="7.72709">
        <ele>462.53</ele>
        <time>2013-08-11T08:27:08Z</time>
      </trkpt>
      <trkpt lat="49.01323" lon="7.72728">
        <ele>464.45</ele>
        <time>2013-08-11T08:27:19Z</time>
      </trkpt>
      <trkpt lat="49.01334" lon="7.72746">
        <ele>465.42</ele>
        <time>2013-08-11T08:27:32Z</time>
      </trkpt>
      <trkpt lat="49.01343" lon="7.72767">
        <ele>473.11</ele>
        <time>2013-08-11T08:27:51Z</time>
      </trkpt>
      <trkpt lat="49.01398" lon="7.72812">
        <ele>435.13</ele>
        <time>2013-08-11T08:28:09Z</time>
      </trkpt>
      <trkpt lat="49.01392" lon="7.72804">
        <ele>445.71</ele>
        <time>2013-08-11T08:28:27Z</time>
      </trkpt>
      <trkpt lat="49.01383" lon="7.72806">
        <ele>443.79</ele>
        <time>2013-08-11T08:28:41Z</time>
      </trkpt>
      <trkpt lat="49.01361" lon="7.72815">
        <ele>441.38</ele>
        <time>2013-08-11T08:29:06Z</time>
      </trkpt>
      <trkpt lat="49.01344" lon="7.72829">
        <ele>447.15</ele>
        <time>2013-08-11T08:29:25Z</time>
      </trkpt>
      <trkpt lat="49.0132" lon="7.72854">
        <ele>448.11</ele>
        <time>2013-08-11T08:29:34Z</time>
      </trkpt>
      <trkpt lat="49.01298" lon="7.72878">
        <ele>448.11</ele>
        <time>2013-08-11T08:29:45Z</time>
      </trkpt>
      <trkpt lat="49.01285" lon="7.729">
        <ele>445.23</ele>
        <time>2013-08-11T08:29:55Z</time>
      </trkpt>
      <trkpt lat="49.0127" lon="7.72929">
        <ele>444.27</ele>
        <time>2013-08-11T08:30:05Z</time>
      </trkpt>
      <trkpt lat="49.01255" lon="7.72961">
        <ele>452.44</ele>
        <time>2013-08-11T08:30:28Z</time>
      </trkpt>
      <trkpt lat="49.01236" lon="7.72973">
        <ele>462.05</ele>
        <time>2013-08-11T08:30:41Z</time>
      </trkpt>
      <trkpt lat="49.01227" lon="7.72963">
        <ele>466.38</ele>
        <time>2013-08-11T08:30:54Z</time>
      </trkpt>
      <trkpt lat="49.01212" lon="7.7295">
        <ele>472.14</ele>
        <time>2013-08-11T08:31:11Z</time>
      </trkpt>
      <trkpt lat="49.01196" lon="7.72938">
        <ele>476.95</ele>
        <time>2013-08-11T08:31:27Z</time>
      </trkpt>
      <trkpt lat="49.01176" lon="7.72931">
        <ele>483.2</ele>
        <time>2013-08-11T08:31:40Z</time>
      </trkpt>
      <trkpt lat="49.01165" lon="7.72922">
        <ele>486.56</ele>
        <time>2013-08-11T08:31:52Z</time>
      </trkpt>
      <trkpt lat="49.01157" lon="7.72912">
        <ele>496.66</ele>
        <time>2013-08-11T08:32:05Z</time>
      </trkpt>
      <trkpt lat="49.01126" lon="7.72912">
        <ele>493.77</ele>
        <time>2013-08-11T08:32:18Z</time>
      </trkpt>
      <trkpt lat="49.01089" lon="7.72912">
        <ele>479.84</ele>
        <time>2013-08-11T08:32:34Z</time>
      </trkpt>
      <trkpt lat="49.01067" lon="7.72907">
        <ele>474.55</ele>
        <time>2013-08-11T08:32:46Z</time>
      </trkpt>
      <trkpt lat="49.0105" lon="7.72901">
        <ele>473.59</ele>
        <time>2013-08-11T08:33:01Z</time>
      </trkpt>
      <trkpt lat="49.01016" lon="7.72902">
        <ele>467.82</ele>
        <time>2013-08-11T08:33:18Z</time>
      </trkpt>
      <trkpt lat="49.00984" lon="7.72903">
        <ele>463.49</ele>
        <time>2013-08-11T08:33:33Z</time>
      </trkpt>
      <trkpt lat="49.00957" lon="7.72913">
        <ele>460.61</ele>
        <time>2013-08-11T08:33:53Z</time>
      </trkpt>
      <trkpt lat="49.00922" lon="7.72937">
        <ele>463.01</ele>
        <time>2013-08-11T08:34:19Z</time>
      </trkpt>
      <trkpt lat="49.00898" lon="7.72957">
        <ele>463.49</ele>
        <time>2013-08-11T08:34:35Z</time>
      </trkpt>
      <trkpt lat="49.00877" lon="7.72965">
        <ele>468.78</ele>
        <time>2013-08-11T08:34:53Z</time>
      </trkpt>
      <trkpt lat="49.00857" lon="7.72973">
        <ele>463.97</ele>
        <time>2013-08-11T08:35:05Z</time>
      </trkpt>
      <trkpt lat="49.00843" lon="7.7297">
        <ele>465.9</ele>
        <time>2013-08-11T08:35:15Z</time>
      </trkpt>
      <trkpt lat="49.00831" lon="7.7297">
        <ele>466.86</ele>
        <time>2013-08-11T08:35:21Z</time>
      </trkpt>
      <trkpt lat="49.00821" lon="7.72968">
        <ele>467.82</ele>
        <time>2013-08-11T08:35:26Z</time>
      </trkpt>
      <trkpt lat="49.00808" lon="7.72962">
        <ele>466.38</ele>
        <time>2013-08-11T08:35:33Z</time>
      </trkpt>
      <trkpt lat="49.00791" lon="7.72953">
        <ele>462.53</ele>
        <time>2013-08-11T08:35:41Z</time>
      </trkpt>
      <trkpt lat="49.00774" lon="7.7294">
        <ele>456.28</ele>
        <time>2013-08-11T08:35:52Z</time>
      </trkpt>
      <trkpt lat="49.00754" lon="7.72935">
        <ele>451.96</ele>
        <time>2013-08-11T08:36:06Z</time>
      </trkpt>
      <trkpt lat="49.00735" lon="7.72924">
        <ele>451.48</ele>
        <time>2013-08-11T08:36:19Z</time>
      </trkpt>
      <trkpt lat="49.00699" lon="7.72933">
        <ele>438.5</ele>
        <time>2013-08-11T08:36:41Z</time>
      </trkpt>
      <trkpt lat="49.00668" lon="7.72944">
        <ele>434.17</ele>
        <time>2013-08-11T08:36:59Z</time>
      </trkpt>
      <trkpt lat="49.00648" lon="7.72948">
        <ele>438.5</ele>
        <time>2013-08-11T08:37:16Z</time>
      </trkpt>
      <trkpt lat="49.00636" lon="7.72952">
        <ele>443.79</ele>
        <time>2013-08-11T08:37:26Z</time>
      </trkpt>
      <trkpt lat="49.00621" lon="7.72963">
        <ele>443.79</ele>
        <time>2013-08-11T08:37:35Z</time>
      </trkpt>
      <trkpt lat="49.00608" lon="7.7298">
        <ele>443.31</ele>
        <time>2013-08-11T08:37:45Z</time>
      </trkpt>
      <trkpt lat="49.00603" lon="7.72997">
        <ele>444.75</ele>
        <time>2013-08-11T08:37:54Z</time>
      </trkpt>
      <trkpt lat="49.00593" lon="7.73012">
        <ele>447.15</ele>
        <time>2013-08-11T08:38:03Z</time>
      </trkpt>
      <trkpt lat="49.00582" lon="7.73025">
        <ele>449.07</ele>
        <time>2013-08-11T08:38:09Z</time>
      </trkpt>
      <trkpt lat="49.00576" lon="7.73042">
        <ele>449.55</ele>
        <time>2013-08-11T08:38:17Z</time>
      </trkpt>
      <trkpt lat="49.00561" lon="7.73071">
        <ele>447.63</ele>
        <time>2013-08-11T08:38:32Z</time>
      </trkpt>
      <trkpt lat="49.00542" lon="7.73113">
        <ele>451.48</ele>
        <time>2013-08-11T08:38:58Z</time>
      </trkpt>
      <trkpt lat="49.00516" lon="7.73145">
        <ele>454.84</ele>
        <time>2013-08-11T08:39:24Z</time>
      </trkpt>
      <trkpt lat="49.00495" lon="7.73191">
        <ele>456.76</ele>
        <time>2013-08-11T08:39:45Z</time>
      </trkpt>
      <trkpt lat="49.00483" lon="7.73216">
        <ele>455.32</ele>
        <time>2013-08-11T08:39:54Z</time>
      </trkpt>
      <trkpt lat="49.00475" lon="7.73239">
        <ele>454.36</ele>
        <time>2013-08-11T08:40:03Z</time>
      </trkpt>
      <trkpt lat="49.00474" lon="7.73257">
        <ele>458.69</ele>
        <time>2013-08-11T08:40:18Z</time>
      </trkpt>
      <trkpt lat="49.00461" lon="7.73305">
        <ele>456.28</ele>
        <time>2013-08-11T08:40:31Z</time>
      </trkpt>
      <trkpt lat="49.00452" lon="7.73336">
        <ele>464.93</ele>
        <time>2013-08-11T08:40:46Z</time>
      </trkpt>
      <trkpt lat="49.00434" lon="7.73392">
        <ele>467.82</ele>
        <time>2013-08-11T08:40:59Z</time>
      </trkpt>
      <trkpt lat="49.00428" lon="7.73413">
        <ele>479.84</ele>
        <time>2013-08-11T08:41:12Z</time>
      </trkpt>
      <trkpt lat="49.00422" lon="7.73433">
        <ele>486.56</ele>
        <time>2013-08-11T08:41:21Z</time>
      </trkpt>
      <trkpt lat="49.00425" lon="7.73451">
        <ele>493.77</ele>
        <time>2013-08-11T08:41:31Z</time>
      </trkpt>
      <trkpt lat="49.00434" lon="7.73477">
        <ele>497.62</ele>
        <time>2013-08-11T08:41:43Z</time>
      </trkpt>
      <trkpt lat="49.0044" lon="7.73496">
        <ele>497.62</ele>
        <time>2013-08-11T08:41:53Z</time>
      </trkpt>
      <trkpt lat="49.00444" lon="7.73514">
        <ele>497.62</ele>
        <time>2013-08-11T08:42:01Z</time>
      </trkpt>
      <trkpt lat="49.00456" lon="7.73541">
        <ele>489.93</ele>
        <time>2013-08-11T08:42:11Z</time>
      </trkpt>
      <trkpt lat="49.00464" lon="7.73558">
        <ele>479.84</ele>
        <time>2013-08-11T08:42:19Z</time>
      </trkpt>
      <trkpt lat="49.00468" lon="7.7358">
        <ele>470.7</ele>
        <time>2013-08-11T08:42:29Z</time>
      </trkpt>
      <trkpt lat="49.00479" lon="7.73607">
        <ele>466.38</ele>
        <time>2013-08-11T08:42:40Z</time>
      </trkpt>
      <trkpt lat="49.00479" lon="7.73635">
        <ele>472.63</ele>
        <time>2013-08-11T08:42:59Z</time>
      </trkpt>
      <trkpt lat="49.00486" lon="7.73657">
        <ele>488.97</ele>
        <time>2013-08-11T08:43:15Z</time>
      </trkpt>
      <trkpt lat="49.00494" lon="7.73667">
        <ele>502.43</ele>
        <time>2013-08-11T08:43:27Z</time>
      </trkpt>
      <trkpt lat="49.00501" lon="7.73679">
        <ele>509.64</ele>
        <time>2013-08-11T08:43:36Z</time>
      </trkpt>
      <trkpt lat="49.00504" lon="7.73699">
        <ele>516.37</ele>
        <time>2013-08-11T08:43:46Z</time>
      </trkpt>
      <trkpt lat="49.00504" lon="7.73715">
        <ele>519.25</ele>
        <time>2013-08-11T08:43:55Z</time>
      </trkpt>
      <trkpt lat="49.00512" lon="7.73735">
        <ele>513.96</ele>
        <time>2013-08-11T08:44:06Z</time>
      </trkpt>
      <trkpt lat="49.00521" lon="7.73746">
        <ele>514.44</ele>
        <time>2013-08-11T08:44:16Z</time>
      </trkpt>
      <trkpt lat="49.00533" lon="7.73759">
        <ele>517.33</ele>
        <time>2013-08-11T08:44:24Z</time>
      </trkpt>
      <trkpt lat="49.00544" lon="7.73767">
        <ele>518.29</ele>
        <time>2013-08-11T08:44:33Z</time>
      </trkpt>
      <trkpt lat="49.00556" lon="7.73771">
        <ele>519.25</ele>
        <time>2013-08-11T08:44:42Z</time>
      </trkpt>
      <trkpt lat="49.0057" lon="7.73782">
        <ele>513.48</ele>
        <time>2013-08-11T08:44:50Z</time>
      </trkpt>
      <trkpt lat="49.00592" lon="7.73792">
        <ele>501.95</ele>
        <time>2013-08-11T08:45:01Z</time>
      </trkpt>
      <trkpt lat="49.00607" lon="7.73802">
        <ele>502.43</ele>
        <time>2013-08-11T08:45:13Z</time>
      </trkpt>
      <trkpt lat="49.00618" lon="7.73806">
        <ele>503.39</ele>
        <time>2013-08-11T08:45:20Z</time>
      </trkpt>
      <trkpt lat="49.00629" lon="7.73806">
        <ele>503.39</ele>
        <time>2013-08-11T08:45:28Z</time>
      </trkpt>
      <trkpt lat="49.00638" lon="7.73802">
        <ele>502.91</ele>
        <time>2013-08-11T08:45:36Z</time>
      </trkpt>
      <trkpt lat="49.00649" lon="7.738">
        <ele>503.39</ele>
        <time>2013-08-11T08:45:45Z</time>
      </trkpt>
      <trkpt lat="49.00659" lon="7.738">
        <ele>503.39</ele>
        <time>2013-08-11T08:45:56Z</time>
      </trkpt>
      <trkpt lat="49.00668" lon="7.73807">
        <ele>502.91</ele>
        <time>2013-08-11T08:46:12Z</time>
      </trkpt>
      <trkpt lat="49.00676" lon="7.7382">
        <ele>501.95</ele>
        <time>2013-08-11T08:46:19Z</time>
      </trkpt>
      <trkpt lat="49.00684" lon="7.73841">
        <ele>500.5</ele>
        <time>2013-08-11T08:46:28Z</time>
      </trkpt>
      <trkpt lat="49.00681" lon="7.73855">
        <ele>500.5</ele>
        <time>2013-08-11T08:46:38Z</time>
      </trkpt>
      <trkpt lat="49.00686" lon="7.73869">
        <ele>500.02</ele>
        <time>2013-08-11T08:46:46Z</time>
      </trkpt>
      <trkpt lat="49.00683" lon="7.73885">
        <ele>500.02</ele>
        <time>2013-08-11T08:46:51Z</time>
      </trkpt>
      <trkpt lat="49.00677" lon="7.73896">
        <ele>497.14</ele>
        <time>2013-08-11T08:47:03Z</time>
      </trkpt>
      <trkpt lat="49.00695" lon="7.73924">
        <ele>478.39</ele>
        <time>2013-08-11T08:47:13Z</time>
      </trkpt>
      <trkpt lat="49.00691" lon="7.73941">
        <ele>477.43</ele>
        <time>2013-08-11T08:47:19Z</time>
      </trkpt>
      <trkpt lat="49.00688" lon="7.73949">
        <ele>472.63</ele>
        <time>2013-08-11T08:47:25Z</time>
      </trkpt>
      <trkpt lat="49.00686" lon="7.73955">
        <ele>462.05</ele>
        <time>2013-08-11T08:47:41Z</time>
      </trkpt>
      <trkpt lat="49.00687" lon="7.73972">
        <ele>452.44</ele>
        <time>2013-08-11T08:48:05Z</time>
      </trkpt>
      <trkpt lat="49.00665" lon="7.73985">
        <ele>458.69</ele>
        <time>2013-08-11T08:48:29Z</time>
      </trkpt>
      <trkpt lat="49.00642" lon="7.7402">
        <ele>456.76</ele>
        <time>2013-08-11T08:48:55Z</time>
      </trkpt>
      <trkpt lat="49.00628" lon="7.74045">
        <ele>462.53</ele>
        <time>2013-08-11T08:49:18Z</time>
      </trkpt>
      <trkpt lat="49.00589" lon="7.74106">
        <ele>471.66</ele>
        <time>2013-08-11T08:49:42Z</time>
      </trkpt>
      <trkpt lat="49.00568" lon="7.74153">
        <ele>471.66</ele>
        <time>2013-08-11T08:49:54Z</time>
      </trkpt>
      <trkpt lat="49.00557" lon="7.74191">
        <ele>473.59</ele>
        <time>2013-08-11T08:50:07Z</time>
      </trkpt>
      <trkpt lat="49.00545" lon="7.74253">
        <ele>484.64</ele>
        <time>2013-08-11T08:50:31Z</time>
      </trkpt>
      <trkpt lat="49.00528" lon="7.74291">
        <ele>486.08</ele>
        <time>2013-08-11T08:50:48Z</time>
      </trkpt>
      <trkpt lat="49.00527" lon="7.74318">
        <ele>493.29</ele>
        <time>2013-08-11T08:51:02Z</time>
      </trkpt>
      <trkpt lat="49.00534" lon="7.74369">
        <ele>493.29</ele>
        <time>2013-08-11T08:51:20Z</time>
      </trkpt>
      <trkpt lat="49.00542" lon="7.74421">
        <ele>485.6</ele>
        <time>2013-08-11T08:51:36Z</time>
      </trkpt>
      <trkpt lat="49.00544" lon="7.74455">
        <ele>490.41</ele>
        <time>2013-08-11T08:51:54Z</time>
      </trkpt>
      <trkpt lat="49.00551" lon="7.74493">
        <ele>489.93</ele>
        <time>2013-08-11T08:52:10Z</time>
      </trkpt>
      <trkpt lat="49.0056" lon="7.74542">
        <ele>486.56</ele>
        <time>2013-08-11T08:52:27Z</time>
      </trkpt>
      <trkpt lat="49.00569" lon="7.74579">
        <ele>483.68</ele>
        <time>2013-08-11T08:52:42Z</time>
      </trkpt>
      <trkpt lat="49.00573" lon="7.74599">
        <ele>489.45</ele>
        <time>2013-08-11T08:52:54Z</time>
      </trkpt>
      <trkpt lat="49.00577" lon="7.74621">
        <ele>496.66</ele>
        <time>2013-08-11T08:53:06Z</time>
      </trkpt>
      <trkpt lat="49.0058" lon="7.74652">
        <ele>492.81</ele>
        <time>2013-08-11T08:53:16Z</time>
      </trkpt>
      <trkpt lat="49.00585" lon="7.74681">
        <ele>494.26</ele>
        <time>2013-08-11T08:53:31Z</time>
      </trkpt>
      <trkpt lat="49.00587" lon="7.74711">
        <ele>495.7</ele>
        <time>2013-08-11T08:53:44Z</time>
      </trkpt>
      <trkpt lat="49.0059" lon="7.74742">
        <ele>496.66</ele>
        <time>2013-08-11T08:53:54Z</time>
      </trkpt>
      <trkpt lat="49.00594" lon="7.74777">
        <ele>501.95</ele>
        <time>2013-08-11T08:54:11Z</time>
      </trkpt>
      <trkpt lat="49.00596" lon="7.74821">
        <ele>505.31</ele>
        <time>2013-08-11T08:54:29Z</time>
      </trkpt>
      <trkpt lat="49.00601" lon="7.74847">
        <ele>504.35</ele>
        <time>2013-08-11T08:54:45Z</time>
      </trkpt>
      <trkpt lat="49.00601" lon="7.74866">
        <ele>499.54</ele>
        <time>2013-08-11T08:54:56Z</time>
      </trkpt>
      <trkpt lat="49.00595" lon="7.74878">
        <ele>498.1</ele>
        <time>2013-08-11T08:55:10Z</time>
      </trkpt>
      <trkpt lat="49.00597" lon="7.74907">
        <ele>497.62</ele>
        <time>2013-08-11T08:55:22Z</time>
      </trkpt>
      <trkpt lat="49.00599" lon="7.74941">
        <ele>492.33</ele>
        <time>2013-08-11T08:55:32Z</time>
      </trkpt>
      <trkpt lat="49.006" lon="7.7497">
        <ele>486.08</ele>
        <time>2013-08-11T08:55:41Z</time>
      </trkpt>
      <trkpt lat="49.00606" lon="7.75004">
        <ele>478.87</ele>
        <time>2013-08-11T08:55:52Z</time>
      </trkpt>
      <trkpt lat="49.00608" lon="7.75037">
        <ele>473.59</ele>
        <time>2013-08-11T08:56:02Z</time>
      </trkpt>
      <trkpt lat="49.00607" lon="7.7506">
        <ele>463.97</ele>
        <time>2013-08-11T08:56:14Z</time>
      </trkpt>
      <trkpt lat="49.00607" lon="7.75077">
        <ele>459.17</ele>
        <time>2013-08-11T08:56:23Z</time>
      </trkpt>
      <trkpt lat="49.00606" lon="7.751">
        <ele>458.21</ele>
        <time>2013-08-11T08:56:33Z</time>
      </trkpt>
      <trkpt lat="49.00613" lon="7.7513">
        <ele>456.28</ele>
        <time>2013-08-11T08:56:43Z</time>
      </trkpt>
      <trkpt lat="49.00617" lon="7.75156">
        <ele>452.44</ele>
        <time>2013-08-11T08:56:53Z</time>
      </trkpt>
      <trkpt lat="49.00618" lon="7.7518">
        <ele>449.55</ele>
        <time>2013-08-11T08:57:03Z</time>
      </trkpt>
      <trkpt lat="49.00618" lon="7.75202">
        <ele>447.63</ele>
        <time>2013-08-11T08:57:13Z</time>
      </trkpt>
      <trkpt lat="49.00618" lon="7.75222">
        <ele>444.75</ele>
        <time>2013-08-11T08:57:22Z</time>
      </trkpt>
      <trkpt lat="49.00618" lon="7.75241">
        <ele>442.34</ele>
        <time>2013-08-11T08:57:33Z</time>
      </trkpt>
      <trkpt lat="49.00614" lon="7.75253">
        <ele>441.86</ele>
        <time>2013-08-11T08:57:42Z</time>
      </trkpt>
      <trkpt lat="49.00606" lon="7.75267">
        <ele>440.9</ele>
        <time>2013-08-11T08:57:52Z</time>
      </trkpt>
      <trkpt lat="49.00598" lon="7.75277">
        <ele>441.38</ele>
        <time>2013-08-11T08:58:01Z</time>
      </trkpt>
      <trkpt lat="49.0059" lon="7.75287">
        <ele>441.38</ele>
        <time>2013-08-11T08:58:08Z</time>
      </trkpt>
      <trkpt lat="49.00581" lon="7.75295">
        <ele>441.38</ele>
        <time>2013-08-11T08:58:17Z</time>
      </trkpt>
      <trkpt lat="49.00571" lon="7.75305">
        <ele>441.86</ele>
        <time>2013-08-11T08:58:27Z</time>
      </trkpt>
      <trkpt lat="49.0057" lon="7.75329">
        <ele>434.65</ele>
        <time>2013-08-11T08:58:37Z</time>
      </trkpt>
      <trkpt lat="49.00561" lon="7.75336">
        <ele>434.17</ele>
        <time>2013-08-11T08:58:44Z</time>
      </trkpt>
      <trkpt lat="49.00546" lon="7.75353">
        <ele>431.77</ele>
        <time>2013-08-11T08:58:54Z</time>
      </trkpt>
      <trkpt lat="49.00525" lon="7.75353">
        <ele>428.89</ele>
        <time>2013-08-11T08:59:07Z</time>
      </trkpt>
      <trkpt lat="49.00513" lon="7.75358">
        <ele>429.37</ele>
        <time>2013-08-11T08:59:15Z</time>
      </trkpt>
      <trkpt lat="49.00501" lon="7.7537">
        <ele>429.85</ele>
        <time>2013-08-11T08:59:24Z</time>
      </trkpt>
      <trkpt lat="49.00465" lon="7.75391">
        <ele>432.25</ele>
        <time>2013-08-11T08:59:51Z</time>
      </trkpt>
      <trkpt lat="49.00444" lon="7.75376">
        <ele>450.03</ele>
        <time>2013-08-11T09:00:08Z</time>
      </trkpt>
      <trkpt lat="49.00417" lon="7.75382">
        <ele>466.38</ele>
        <time>2013-08-11T09:00:23Z</time>
      </trkpt>
      <trkpt lat="49.00395" lon="7.754">
        <ele>471.66</ele>
        <time>2013-08-11T09:00:38Z</time>
      </trkpt>
      <trkpt lat="49.00389" lon="7.7541">
        <ele>476.47</ele>
        <time>2013-08-11T09:00:51Z</time>
      </trkpt>
      <trkpt lat="49.00384" lon="7.75397">
        <ele>491.37</ele>
        <time>2013-08-11T09:01:05Z</time>
      </trkpt>
      <trkpt lat="49.00404" lon="7.75405">
        <ele>480.8</ele>
        <time>2013-08-11T09:01:17Z</time>
      </trkpt>
      <trkpt lat="49.00412" lon="7.75408">
        <ele>454.36</ele>
        <time>2013-08-11T09:01:29Z</time>
      </trkpt>
      <trkpt lat="49.0043" lon="7.75414">
        <ele>447.15</ele>
        <time>2013-08-11T09:01:43Z</time>
      </trkpt>
      <trkpt lat="49.00394" lon="7.75333">
        <ele>378.9</ele>
        <time>2013-08-11T09:02:58Z</time>
      </trkpt>
      <trkpt lat="49.00395" lon="7.75326">
        <ele>376.49</ele>
        <time>2013-08-11T09:03:07Z</time>
      </trkpt>
      <trkpt lat="49.00392" lon="7.75315">
        <ele>378.9</ele>
        <time>2013-08-11T09:03:17Z</time>
      </trkpt>
      <trkpt lat="49.00387" lon="7.75308">
        <ele>383.7</ele>
        <time>2013-08-11T09:03:26Z</time>
      </trkpt>
      <trkpt lat="49.00382" lon="7.75296">
        <ele>389.95</ele>
        <time>2013-08-11T09:03:34Z</time>
      </trkpt>
      <trkpt lat="49.00376" lon="7.75285">
        <ele>394.76</ele>
        <time>2013-08-11T09:03:43Z</time>
      </trkpt>
      <trkpt lat="49.00371" lon="7.75273">
        <ele>407.26</ele>
        <time>2013-08-11T09:03:57Z</time>
      </trkpt>
      <trkpt lat="49.00359" lon="7.75247">
        <ele>428.4</ele>
        <time>2013-08-11T09:04:25Z</time>
      </trkpt>
      <trkpt lat="49.00344" lon="7.7519">
        <ele>427.44</ele>
        <time>2013-08-11T09:04:44Z</time>
      </trkpt>
      <trkpt lat="49.00326" lon="7.75156">
        <ele>421.19</ele>
        <time>2013-08-11T09:04:56Z</time>
      </trkpt>
      <trkpt lat="49.00318" lon="7.7514">
        <ele>420.71</ele>
        <time>2013-08-11T09:05:07Z</time>
      </trkpt>
      <trkpt lat="49.00311" lon="7.75118">
        <ele>429.37</ele>
        <time>2013-08-11T09:05:22Z</time>
      </trkpt>
      <trkpt lat="49.00301" lon="7.75083">
        <ele>429.37</ele>
        <time>2013-08-11T09:05:35Z</time>
      </trkpt>
      <trkpt lat="49.00295" lon="7.75056">
        <ele>429.37</ele>
        <time>2013-08-11T09:05:47Z</time>
      </trkpt>
      <trkpt lat="49.00286" lon="7.75035">
        <ele>436.58</ele>
        <time>2013-08-11T09:06:02Z</time>
      </trkpt>
      <trkpt lat="49.00281" lon="7.75015">
        <ele>436.1</ele>
        <time>2013-08-11T09:06:11Z</time>
      </trkpt>
      <trkpt lat="49.00275" lon="7.74993">
        <ele>435.13</ele>
        <time>2013-08-11T09:06:20Z</time>
      </trkpt>
      <trkpt lat="49.00268" lon="7.74971">
        <ele>432.25</ele>
        <time>2013-08-11T09:06:28Z</time>
      </trkpt>
      <trkpt lat="49.00263" lon="7.74953">
        <ele>429.85</ele>
        <time>2013-08-11T09:06:36Z</time>
      </trkpt>
      <trkpt lat="49.00256" lon="7.74937">
        <ele>427.92</ele>
        <time>2013-08-11T09:06:44Z</time>
      </trkpt>
      <trkpt lat="49.00249" lon="7.74906">
        <ele>426.48</ele>
        <time>2013-08-11T09:06:57Z</time>
      </trkpt>
      <trkpt lat="49.00243" lon="7.74889">
        <ele>424.56</ele>
        <time>2013-08-11T09:07:04Z</time>
      </trkpt>
      <trkpt lat="49.00238" lon="7.74862">
        <ele>418.79</ele>
        <time>2013-08-11T09:07:12Z</time>
      </trkpt>
      <trkpt lat="49.00234" lon="7.74843">
        <ele>418.79</ele>
        <time>2013-08-11T09:07:20Z</time>
      </trkpt>
      <trkpt lat="49.0023" lon="7.74827">
        <ele>420.71</ele>
        <time>2013-08-11T09:07:28Z</time>
      </trkpt>
      <trkpt lat="49.00227" lon="7.74812">
        <ele>422.64</ele>
        <time>2013-08-11T09:07:37Z</time>
      </trkpt>
      <trkpt lat="49.00219" lon="7.74793">
        <ele>425.04</ele>
        <time>2013-08-11T09:07:48Z</time>
      </trkpt>
      <trkpt lat="49.00214" lon="7.74773">
        <ele>427.92</ele>
        <time>2013-08-11T09:07:56Z</time>
      </trkpt>
      <trkpt lat="49.00204" lon="7.74753">
        <ele>426.96</ele>
        <time>2013-08-11T09:08:07Z</time>
      </trkpt>
      <trkpt lat="49.00198" lon="7.74737">
        <ele>431.77</ele>
        <time>2013-08-11T09:08:15Z</time>
      </trkpt>
      <trkpt lat="49.0019" lon="7.74721">
        <ele>432.73</ele>
        <time>2013-08-11T09:08:22Z</time>
      </trkpt>
      <trkpt lat="49.00175" lon="7.74709">
        <ele>425.52</ele>
        <time>2013-08-11T09:08:30Z</time>
      </trkpt>
      <trkpt lat="49.00164" lon="7.74707">
        <ele>422.64</ele>
        <time>2013-08-11T09:08:37Z</time>
      </trkpt>
      <trkpt lat="49.00157" lon="7.74703">
        <ele>420.23</ele>
        <time>2013-08-11T09:08:44Z</time>
      </trkpt>
      <trkpt lat="49.00148" lon="7.74696">
        <ele>416.39</ele>
        <time>2013-08-11T09:08:52Z</time>
      </trkpt>
      <trkpt lat="49.00137" lon="7.7469">
        <ele>412.06</ele>
        <time>2013-08-11T09:08:59Z</time>
      </trkpt>
      <trkpt lat="49.00127" lon="7.74679">
        <ele>407.26</ele>
        <time>2013-08-11T09:09:06Z</time>
      </trkpt>
      <trkpt lat="49.00114" lon="7.7467">
        <ele>402.45</ele>
        <time>2013-08-11T09:09:13Z</time>
      </trkpt>
      <trkpt lat="49.00102" lon="7.74657">
        <ele>399.08</ele>
        <time>2013-08-11T09:09:20Z</time>
      </trkpt>
      <trkpt lat="49.00092" lon="7.74648">
        <ele>397.16</ele>
        <time>2013-08-11T09:09:26Z</time>
      </trkpt>
      <trkpt lat="49.00084" lon="7.7464">
        <ele>395.24</ele>
        <time>2013-08-11T09:09:32Z</time>
      </trkpt>
      <trkpt lat="49.00077" lon="7.74626">
        <ele>394.28</ele>
        <time>2013-08-11T09:09:39Z</time>
      </trkpt>
      <trkpt lat="49.00067" lon="7.74614">
        <ele>392.36</ele>
        <time>2013-08-11T09:09:46Z</time>
      </trkpt>
      <trkpt lat="49.00057" lon="7.74604">
        <ele>391.39</ele>
        <time>2013-08-11T09:09:53Z</time>
      </trkpt>
      <trkpt lat="49.00048" lon="7.74586">
        <ele>389.95</ele>
        <time>2013-08-11T09:10:01Z</time>
      </trkpt>
      <trkpt lat="49.0004" lon="7.74575">
        <ele>390.43</ele>
        <time>2013-08-11T09:10:08Z</time>
      </trkpt>
      <trkpt lat="49.0003" lon="7.74563">
        <ele>390.43</ele>
        <time>2013-08-11T09:10:16Z</time>
      </trkpt>
      <trkpt lat="49.00022" lon="7.7455">
        <ele>390.91</ele>
        <time>2013-08-11T09:10:23Z</time>
      </trkpt>
      <trkpt lat="49.00015" lon="7.7454">
        <ele>391.39</ele>
        <time>2013-08-11T09:10:31Z</time>
      </trkpt>
      <trkpt lat="49.00008" lon="7.74526">
        <ele>392.36</ele>
        <time>2013-08-11T09:10:38Z</time>
      </trkpt>
      <trkpt lat="48.99999" lon="7.7451">
        <ele>392.84</ele>
        <time>2013-08-11T09:10:46Z</time>
      </trkpt>
      <trkpt lat="48.99988" lon="7.74504">
        <ele>397.64</ele>
        <time>2013-08-11T09:10:56Z</time>
      </trkpt>
      <trkpt lat="48.99977" lon="7.74508">
        <ele>411.58</ele>
        <time>2013-08-11T09:11:10Z</time>
      </trkpt>
      <trkpt lat="48.99969" lon="7.74523">
        <ele>431.29</ele>
        <time>2013-08-11T09:11:23Z</time>
      </trkpt>
      <trkpt lat="48.99966" lon="7.74544">
        <ele>445.23</ele>
        <time>2013-08-11T09:11:33Z</time>
      </trkpt>
      <trkpt lat="48.99962" lon="7.74565">
        <ele>462.05</ele>
        <time>2013-08-11T09:11:45Z</time>
      </trkpt>
      <trkpt lat="48.99947" lon="7.74582">
        <ele>474.07</ele>
        <time>2013-08-11T09:11:59Z</time>
      </trkpt>
      <trkpt lat="48.99935" lon="7.74601">
        <ele>474.07</ele>
        <time>2013-08-11T09:12:11Z</time>
      </trkpt>
      <trkpt lat="48.99923" lon="7.74617">
        <ele>473.59</ele>
        <time>2013-08-11T09:12:23Z</time>
      </trkpt>
      <trkpt lat="48.9991" lon="7.7463">
        <ele>475.51</ele>
        <time>2013-08-11T09:12:32Z</time>
      </trkpt>
      <trkpt lat="48.99893" lon="7.74639">
        <ele>474.55</ele>
        <time>2013-08-11T09:12:41Z</time>
      </trkpt>
      <trkpt lat="48.99876" lon="7.74651">
        <ele>470.7</ele>
        <time>2013-08-11T09:12:51Z</time>
      </trkpt>
      <trkpt lat="48.99863" lon="7.74669">
        <ele>467.82</ele>
        <time>2013-08-11T09:13:02Z</time>
      </trkpt>
      <trkpt lat="48.99851" lon="7.74688">
        <ele>463.97</ele>
        <time>2013-08-11T09:13:11Z</time>
      </trkpt>
      <trkpt lat="48.99834" lon="7.747">
        <ele>456.76</ele>
        <time>2013-08-11T09:13:19Z</time>
      </trkpt>
      <trkpt lat="48.99824" lon="7.74719">
        <ele>453.4</ele>
        <time>2013-08-11T09:13:26Z</time>
      </trkpt>
      <trkpt lat="48.99817" lon="7.74732">
        <ele>448.11</ele>
        <time>2013-08-11T09:13:34Z</time>
      </trkpt>
      <trkpt lat="48.99809" lon="7.74737">
        <ele>445.23</ele>
        <time>2013-08-11T09:13:42Z</time>
      </trkpt>
      <trkpt lat="48.99789" lon="7.74749">
        <ele>441.38</ele>
        <time>2013-08-11T09:13:54Z</time>
      </trkpt>
      <trkpt lat="48.99775" lon="7.7477">
        <ele>435.61</ele>
        <time>2013-08-11T09:14:07Z</time>
      </trkpt>
      <trkpt lat="48.99764" lon="7.74787">
        <ele>430.81</ele>
        <time>2013-08-11T09:14:16Z</time>
      </trkpt>
      <trkpt lat="48.99754" lon="7.74801">
        <ele>426.96</ele>
        <time>2013-08-11T09:14:25Z</time>
      </trkpt>
      <trkpt lat="48.99731" lon="7.74847">
        <ele>410.62</ele>
        <time>2013-08-11T09:15:03Z</time>
      </trkpt>
      <trkpt lat="48.99723" lon="7.74858">
        <ele>402.45</ele>
        <time>2013-08-11T09:15:17Z</time>
      </trkpt>
      <trkpt lat="48.99718" lon="7.74879">
        <ele>404.37</ele>
        <time>2013-08-11T09:15:32Z</time>
      </trkpt>
      <trkpt lat="48.99708" lon="7.74906">
        <ele>410.62</ele>
        <time>2013-08-11T09:15:51Z</time>
      </trkpt>
      <trkpt lat="48.99692" lon="7.7494">
        <ele>417.83</ele>
        <time>2013-08-11T09:16:13Z</time>
      </trkpt>
      <trkpt lat="48.99679" lon="7.7496">
        <ele>428.89</ele>
        <time>2013-08-11T09:16:28Z</time>
      </trkpt>
      <trkpt lat="48.99665" lon="7.74978">
        <ele>435.13</ele>
        <time>2013-08-11T09:16:42Z</time>
      </trkpt>
      <trkpt lat="48.99652" lon="7.75001">
        <ele>441.38</ele>
        <time>2013-08-11T09:17:01Z</time>
      </trkpt>
      <trkpt lat="48.99644" lon="7.75016">
        <ele>438.02</ele>
        <time>2013-08-11T09:17:14Z</time>
      </trkpt>
      <trkpt lat="48.99634" lon="7.75055">
        <ele>438.02</ele>
        <time>2013-08-11T09:17:35Z</time>
      </trkpt>
      <trkpt lat="48.99627" lon="7.75068">
        <ele>418.31</ele>
        <time>2013-08-11T09:17:52Z</time>
      </trkpt>
      <trkpt lat="48.9962" lon="7.7507">
        <ele>406.77</ele>
        <time>2013-08-11T09:18:05Z</time>
      </trkpt>
      <trkpt lat="48.99622" lon="7.75076">
        <ele>388.51</ele>
        <time>2013-08-11T09:18:25Z</time>
      </trkpt>
      <trkpt lat="48.99612" lon="7.75075">
        <ele>386.59</ele>
        <time>2013-08-11T09:18:37Z</time>
      </trkpt>
      <trkpt lat="48.99601" lon="7.75083">
        <ele>384.66</ele>
        <time>2013-08-11T09:18:47Z</time>
      </trkpt>
      <trkpt lat="48.99597" lon="7.75099">
        <ele>383.7</ele>
        <time>2013-08-11T09:19:00Z</time>
      </trkpt>
      <trkpt lat="48.99593" lon="7.7512">
        <ele>388.99</ele>
        <time>2013-08-11T09:19:21Z</time>
      </trkpt>
      <trkpt lat="48.99584" lon="7.7515">
        <ele>392.36</ele>
        <time>2013-08-11T09:19:40Z</time>
      </trkpt>
      <trkpt lat="48.99577" lon="7.7518">
        <ele>401.01</ele>
        <time>2013-08-11T09:20:02Z</time>
      </trkpt>
      <trkpt lat="48.99569" lon="7.75211">
        <ele>407.74</ele>
        <time>2013-08-11T09:20:21Z</time>
      </trkpt>
      <trkpt lat="48.9956" lon="7.75234">
        <ele>421.19</ele>
        <time>2013-08-11T09:20:39Z</time>
      </trkpt>
      <trkpt lat="48.99552" lon="7.75239">
        <ele>433.69</ele>
        <time>2013-08-11T09:20:52Z</time>
      </trkpt>
      <trkpt lat="48.99538" lon="7.75249">
        <ele>438.02</ele>
        <time>2013-08-11T09:21:05Z</time>
      </trkpt>
      <trkpt lat="48.99524" lon="7.75257">
        <ele>439.46</ele>
        <time>2013-08-11T09:21:18Z</time>
      </trkpt>
      <trkpt lat="48.99514" lon="7.75269">
        <ele>437.54</ele>
        <time>2013-08-11T09:21:30Z</time>
      </trkpt>
      <trkpt lat="48.99503" lon="7.75282">
        <ele>436.58</ele>
        <time>2013-08-11T09:21:40Z</time>
      </trkpt>
      <trkpt lat="48.99491" lon="7.75296">
        <ele>437.54</ele>
        <time>2013-08-11T09:21:52Z</time>
      </trkpt>
      <trkpt lat="48.99477" lon="7.75366">
        <ele>364</ele>
        <time>2013-08-11T09:23:33Z</time>
      </trkpt>
      <trkpt lat="48.99472" lon="7.75372">
        <ele>370.24</ele>
        <time>2013-08-11T09:23:51Z</time>
      </trkpt>
      <trkpt lat="48.99464" lon="7.75379">
        <ele>383.7</ele>
        <time>2013-08-11T09:24:02Z</time>
      </trkpt>
      <trkpt lat="48.99454" lon="7.75387">
        <ele>395.72</ele>
        <time>2013-08-11T09:24:14Z</time>
      </trkpt>
      <trkpt lat="48.99442" lon="7.75396">
        <ele>407.74</ele>
        <time>2013-08-11T09:24:26Z</time>
      </trkpt>
      <trkpt lat="48.9943" lon="7.75414">
        <ele>414.95</ele>
        <time>2013-08-11T09:24:38Z</time>
      </trkpt>
      <trkpt lat="48.99417" lon="7.75437">
        <ele>414.47</ele>
        <time>2013-08-11T09:24:53Z</time>
      </trkpt>
      <trkpt lat="48.99402" lon="7.75445">
        <ele>421.68</ele>
        <time>2013-08-11T09:25:03Z</time>
      </trkpt>
      <trkpt lat="48.99389" lon="7.75457">
        <ele>423.12</ele>
        <time>2013-08-11T09:25:16Z</time>
      </trkpt>
      <trkpt lat="48.99378" lon="7.75467">
        <ele>418.79</ele>
        <time>2013-08-11T09:25:26Z</time>
      </trkpt>
      <trkpt lat="48.99364" lon="7.75479">
        <ele>415.43</ele>
        <time>2013-08-11T09:25:38Z</time>
      </trkpt>
      <trkpt lat="48.99352" lon="7.75492">
        <ele>408.7</ele>
        <time>2013-08-11T09:25:49Z</time>
      </trkpt>
      <trkpt lat="48.99338" lon="7.75501">
        <ele>405.33</ele>
        <time>2013-08-11T09:26:00Z</time>
      </trkpt>
      <trkpt lat="48.99323" lon="7.75509">
        <ele>403.41</ele>
        <time>2013-08-11T09:26:11Z</time>
      </trkpt>
      <trkpt lat="48.99306" lon="7.75519">
        <ele>401.01</ele>
        <time>2013-08-11T09:26:21Z</time>
      </trkpt>
      <trkpt lat="48.99293" lon="7.75522">
        <ele>400.05</ele>
        <time>2013-08-11T09:26:29Z</time>
      </trkpt>
      <trkpt lat="48.99277" lon="7.75527">
        <ele>399.57</ele>
        <time>2013-08-11T09:26:39Z</time>
      </trkpt>
      <trkpt lat="48.99264" lon="7.75538">
        <ele>394.76</ele>
        <time>2013-08-11T09:26:50Z</time>
      </trkpt>
      <trkpt lat="48.99252" lon="7.75546">
        <ele>389.47</ele>
        <time>2013-08-11T09:26:59Z</time>
      </trkpt>
      <trkpt lat="48.99237" lon="7.75551">
        <ele>384.66</ele>
        <time>2013-08-11T09:27:09Z</time>
      </trkpt>
      <trkpt lat="48.99224" lon="7.75558">
        <ele>378.9</ele>
        <time>2013-08-11T09:27:18Z</time>
      </trkpt>
      <trkpt lat="48.99209" lon="7.75566">
        <ele>370.24</ele>
        <time>2013-08-11T09:27:32Z</time>
      </trkpt>
      <trkpt lat="48.99197" lon="7.75571">
        <ele>363.04</ele>
        <time>2013-08-11T09:27:42Z</time>
      </trkpt>
      <trkpt lat="48.99178" lon="7.75574">
        <ele>355.83</ele>
        <time>2013-08-11T09:27:55Z</time>
      </trkpt>
      <trkpt lat="48.99162" lon="7.75576">
        <ele>349.1</ele>
        <time>2013-08-11T09:28:05Z</time>
      </trkpt>
      <trkpt lat="48.99148" lon="7.75578">
        <ele>346.69</ele>
        <time>2013-08-11T09:28:14Z</time>
      </trkpt>
      <trkpt lat="48.99135" lon="7.75576">
        <ele>343.81</ele>
        <time>2013-08-11T09:28:24Z</time>
      </trkpt>
      <trkpt lat="48.99119" lon="7.75577">
        <ele>342.85</ele>
        <time>2013-08-11T09:28:35Z</time>
      </trkpt>
      <trkpt lat="48.991" lon="7.75578">
        <ele>339</ele>
        <time>2013-08-11T09:28:45Z</time>
      </trkpt>
      <trkpt lat="48.9909" lon="7.75588">
        <ele>333.23</ele>
        <time>2013-08-11T09:28:55Z</time>
      </trkpt>
      <trkpt lat="48.99075" lon="7.75584">
        <ele>330.35</ele>
        <time>2013-08-11T09:29:07Z</time>
      </trkpt>
      <trkpt lat="48.9906" lon="7.75587">
        <ele>326.99</ele>
        <time>2013-08-11T09:29:19Z</time>
      </trkpt>
      <trkpt lat="48.99043" lon="7.75584">
        <ele>325.54</ele>
        <time>2013-08-11T09:29:31Z</time>
      </trkpt>
      <trkpt lat="48.99025" lon="7.75584">
        <ele>326.02</ele>
        <time>2013-08-11T09:29:42Z</time>
      </trkpt>
      <trkpt lat="48.99005" lon="7.75584">
        <ele>326.5</ele>
        <time>2013-08-11T09:29:54Z</time>
      </trkpt>
      <trkpt lat="48.98984" lon="7.75583">
        <ele>329.39</ele>
        <time>2013-08-11T09:30:06Z</time>
      </trkpt>
      <trkpt lat="48.98968" lon="7.7558">
        <ele>329.87</ele>
        <time>2013-08-11T09:30:17Z</time>
      </trkpt>
      <trkpt lat="48.98954" lon="7.75578">
        <ele>327.95</ele>
        <time>2013-08-11T09:30:27Z</time>
      </trkpt>
      <trkpt lat="48.98941" lon="7.75576">
        <ele>326.02</ele>
        <time>2013-08-11T09:30:36Z</time>
      </trkpt>
      <trkpt lat="48.98928" lon="7.75569">
        <ele>319.78</ele>
        <time>2013-08-11T09:30:45Z</time>
      </trkpt>
      <trkpt lat="48.98916" lon="7.7556">
        <ele>312.57</ele>
        <time>2013-08-11T09:30:53Z</time>
      </trkpt>
      <trkpt lat="48.98902" lon="7.75556">
        <ele>305.84</ele>
        <time>2013-08-11T09:31:01Z</time>
      </trkpt>
      <trkpt lat="48.98889" lon="7.75552">
        <ele>301.03</ele>
        <time>2013-08-11T09:31:09Z</time>
      </trkpt>
      <trkpt lat="48.98878" lon="7.7555">
        <ele>296.7</ele>
        <time>2013-08-11T09:31:18Z</time>
      </trkpt>
      <trkpt lat="48.98867" lon="7.75546">
        <ele>292.86</ele>
        <time>2013-08-11T09:31:26Z</time>
      </trkpt>
      <trkpt lat="48.98855" lon="7.75546">
        <ele>289.49</ele>
        <time>2013-08-11T09:31:34Z</time>
      </trkpt>
      <trkpt lat="48.98845" lon="7.75551">
        <ele>281.32</ele>
        <time>2013-08-11T09:31:51Z</time>
      </trkpt>
      <trkpt lat="48.98836" lon="7.75547">
        <ele>279.4</ele>
        <time>2013-08-11T09:32:00Z</time>
      </trkpt>
      <trkpt lat="48.98825" lon="7.75542">
        <ele>278.44</ele>
        <time>2013-08-11T09:32:08Z</time>
      </trkpt>
      <trkpt lat="48.9881" lon="7.7554">
        <ele>279.4</ele>
        <time>2013-08-11T09:32:17Z</time>
      </trkpt>
      <trkpt lat="48.98797" lon="7.75537">
        <ele>279.88</ele>
        <time>2013-08-11T09:32:25Z</time>
      </trkpt>
      <trkpt lat="48.98785" lon="7.75536">
        <ele>279.4</ele>
        <time>2013-08-11T09:32:33Z</time>
      </trkpt>
      <trkpt lat="48.98772" lon="7.75534">
        <ele>278.44</ele>
        <time>2013-08-11T09:32:41Z</time>
      </trkpt>
      <trkpt lat="48.98759" lon="7.75531">
        <ele>278.44</ele>
        <time>2013-08-11T09:32:49Z</time>
      </trkpt>
      <trkpt lat="48.98747" lon="7.75528">
        <ele>279.4</ele>
        <time>2013-08-11T09:32:57Z</time>
      </trkpt>
      <trkpt lat="48.98734" lon="7.75526">
        <ele>280.84</ele>
        <time>2013-08-11T09:33:05Z</time>
      </trkpt>
      <trkpt lat="48.98723" lon="7.75523">
        <ele>281.32</ele>
        <time>2013-08-11T09:33:13Z</time>
      </trkpt>
      <trkpt lat="48.98712" lon="7.7552">
        <ele>282.28</ele>
        <time>2013-08-11T09:33:22Z</time>
      </trkpt>
      <trkpt lat="48.987" lon="7.75518">
        <ele>282.77</ele>
        <time>2013-08-11T09:33:30Z</time>
      </trkpt>
      <trkpt lat="48.98689" lon="7.75517">
        <ele>282.77</ele>
        <time>2013-08-11T09:33:38Z</time>
      </trkpt>
      <trkpt lat="48.98677" lon="7.75514">
        <ele>283.25</ele>
        <time>2013-08-11T09:33:46Z</time>
      </trkpt>
      <trkpt lat="48.98664" lon="7.75511">
        <ele>282.77</ele>
        <time>2013-08-11T09:33:54Z</time>
      </trkpt>
      <trkpt lat="48.98649" lon="7.75509">
        <ele>283.25</ele>
        <time>2013-08-11T09:34:03Z</time>
      </trkpt>
      <trkpt lat="48.98638" lon="7.75521">
        <ele>272.19</ele>
        <time>2013-08-11T09:34:13Z</time>
      </trkpt>
      <trkpt lat="48.98637" lon="7.75526">
        <ele>269.79</ele>
        <time>2013-08-11T09:34:29Z</time>
      </trkpt>
      <trkpt lat="48.98629" lon="7.7552">
        <ele>264.5</ele>
        <time>2013-08-11T09:34:38Z</time>
      </trkpt>
      <trkpt lat="48.98619" lon="7.75519">
        <ele>258.25</ele>
        <time>2013-08-11T09:34:46Z</time>
      </trkpt>
      <trkpt lat="48.98611" lon="7.7552">
        <ele>252</ele>
        <time>2013-08-11T09:34:53Z</time>
      </trkpt>
      <trkpt lat="48.98602" lon="7.7552">
        <ele>249.12</ele>
        <time>2013-08-11T09:35:01Z</time>
      </trkpt>
      <trkpt lat="48.98591" lon="7.75522">
        <ele>246.23</ele>
        <time>2013-08-11T09:35:09Z</time>
      </trkpt>
      <trkpt lat="48.9858" lon="7.75522">
        <ele>244.79</ele>
        <time>2013-08-11T09:35:17Z</time>
      </trkpt>
      <trkpt lat="48.98569" lon="7.75524">
        <ele>243.35</ele>
        <time>2013-08-11T09:35:25Z</time>
      </trkpt>
      <trkpt lat="48.98559" lon="7.75527">
        <ele>242.39</ele>
        <time>2013-08-11T09:35:33Z</time>
      </trkpt>
      <trkpt lat="48.98548" lon="7.75528">
        <ele>240.95</ele>
        <time>2013-08-11T09:35:41Z</time>
      </trkpt>
      <trkpt lat="48.98538" lon="7.75535">
        <ele>240.47</ele>
        <time>2013-08-11T09:35:49Z</time>
      </trkpt>
      <trkpt lat="48.98527" lon="7.7554">
        <ele>239.99</ele>
        <time>2013-08-11T09:35:57Z</time>
      </trkpt>
      <trkpt lat="48.98518" lon="7.75547">
        <ele>240.47</ele>
        <time>2013-08-11T09:36:05Z</time>
      </trkpt>
      <trkpt lat="48.9851" lon="7.75561">
        <ele>237.58</ele>
        <time>2013-08-11T09:36:13Z</time>
      </trkpt>
      <trkpt lat="48.98509" lon="7.75576">
        <ele>237.1</ele>
        <time>2013-08-11T09:36:21Z</time>
      </trkpt>
      <trkpt lat="48.9851" lon="7.7559">
        <ele>238.54</ele>
        <time>2013-08-11T09:36:29Z</time>
      </trkpt>
      <trkpt lat="48.98514" lon="7.75605">
        <ele>239.99</ele>
        <time>2013-08-11T09:36:37Z</time>
      </trkpt>
      <trkpt lat="48.9852" lon="7.75618">
        <ele>241.43</ele>
        <time>2013-08-11T09:36:44Z</time>
      </trkpt>
      <trkpt lat="48.98523" lon="7.75633">
        <ele>240.47</ele>
        <time>2013-08-11T09:36:51Z</time>
      </trkpt>
      <trkpt lat="48.98531" lon="7.75644">
        <ele>239.99</ele>
        <time>2013-08-11T09:36:58Z</time>
      </trkpt>
      <trkpt lat="48.98537" lon="7.75655">
        <ele>239.02</ele>
        <time>2013-08-11T09:37:05Z</time>
      </trkpt>
      <trkpt lat="48.98544" lon="7.75667">
        <ele>239.99</ele>
        <time>2013-08-11T09:37:13Z</time>
      </trkpt>
      <trkpt lat="48.9855" lon="7.75679">
        <ele>239.99</ele>
        <time>2013-08-11T09:37:20Z</time>
      </trkpt>
      <trkpt lat="48.98556" lon="7.7569">
        <ele>240.47</ele>
        <time>2013-08-11T09:37:27Z</time>
      </trkpt>
      <trkpt lat="48.98562" lon="7.75702">
        <ele>240.95</ele>
        <time>2013-08-11T09:37:35Z</time>
      </trkpt>
      <trkpt lat="48.9857" lon="7.75715">
        <ele>239.99</ele>
        <time>2013-08-11T09:37:43Z</time>
      </trkpt>
      <trkpt lat="48.98575" lon="7.7573">
        <ele>240.95</ele>
        <time>2013-08-11T09:37:51Z</time>
      </trkpt>
      <trkpt lat="48.98582" lon="7.75746">
        <ele>241.43</ele>
        <time>2013-08-11T09:37:59Z</time>
      </trkpt>
      <trkpt lat="48.98589" lon="7.75758">
        <ele>240.95</ele>
        <time>2013-08-11T09:38:06Z</time>
      </trkpt>
      <trkpt lat="48.98593" lon="7.75772">
        <ele>241.91</ele>
        <time>2013-08-11T09:38:13Z</time>
      </trkpt>
      <trkpt lat="48.98599" lon="7.75785">
        <ele>242.87</ele>
        <time>2013-08-11T09:38:20Z</time>
      </trkpt>
      <trkpt lat="48.98604" lon="7.75798">
        <ele>244.31</ele>
        <time>2013-08-11T09:38:28Z</time>
      </trkpt>
      <trkpt lat="48.9861" lon="7.75813">
        <ele>246.72</ele>
        <time>2013-08-11T09:38:36Z</time>
      </trkpt>
      <trkpt lat="48.98617" lon="7.75828">
        <ele>245.75</ele>
        <time>2013-08-11T09:38:43Z</time>
      </trkpt>
      <trkpt lat="48.98622" lon="7.75841">
        <ele>246.23</ele>
        <time>2013-08-11T09:38:50Z</time>
      </trkpt>
      <trkpt lat="48.98627" lon="7.75856">
        <ele>246.72</ele>
        <time>2013-08-11T09:38:57Z</time>
      </trkpt>
      <trkpt lat="48.98633" lon="7.75868">
        <ele>249.12</ele>
        <time>2013-08-11T09:39:05Z</time>
      </trkpt>
      <trkpt lat="48.98636" lon="7.75885">
        <ele>253.44</ele>
        <time>2013-08-11T09:39:15Z</time>
      </trkpt>
      <trkpt lat="48.98641" lon="7.75896">
        <ele>245.27</ele>
        <time>2013-08-11T09:40:05Z</time>
      </trkpt>
      <trkpt lat="48.98633" lon="7.75905">
        <ele>246.23</ele>
        <time>2013-08-11T09:40:15Z</time>
      </trkpt>
      <trkpt lat="48.98624" lon="7.75914">
        <ele>246.23</ele>
        <time>2013-08-11T09:40:24Z</time>
      </trkpt>
      <trkpt lat="48.98615" lon="7.75921">
        <ele>248.16</ele>
        <time>2013-08-11T09:40:33Z</time>
      </trkpt>
      <trkpt lat="48.98606" lon="7.75917">
        <ele>248.64</ele>
        <time>2013-08-11T09:40:41Z</time>
      </trkpt>
      <trkpt lat="48.9859" lon="7.75905">
        <ele>251.52</ele>
        <time>2013-08-11T09:41:38Z</time>
      </trkpt>
      <trkpt lat="48.9859" lon="7.75904">
        <ele>251.04</ele>
        <time>2013-08-11T09:41:47Z</time>
      </trkpt>
      <trkpt lat="48.98601" lon="7.75954">
        <ele>294.78</ele>
        <time>2013-08-11T09:47:12Z</time>
      </trkpt>
      <trkpt lat="48.98601" lon="7.75939">
        <ele>279.88</ele>
        <time>2013-08-11T09:47:18Z</time>
      </trkpt>
    </trkseg>
  </trk>
</gpx>